KLM195 EHAM-SMJP
Flight info
| Callsign | KLM195 |
|---|---|
| Flight time | 9h 9m |
| Altitude | 34000 |
| Route | IDRID L980 LOGAN DCT SAM N19 ADKIK DCT JOZMA DCT GAPLI/M082F340 DCT OMOKO DCT 45N020W 38N030W/M082F360 33N035W 28N040W 24N045W DCT NEZBT/N0474F380 DCT 16N050W 0927N05300W 0730N05400W DCT TODOL |
| Aircraft | B77W/H-SDE1E2E3FGHIJ2J3J4J5M1RWXY/LB1D1 |
Departure
| Time | 2026-04-29 11:24 |
|---|---|
| Airport | Amsterdam Airport Schiphol (EHAM) |
Arrival
| Time | 2026-04-29 20:33 |
|---|---|
| Airport | Johan Adolf Pengel International Airport (SMJP) |
| Time | Latitude | Longitude | Altitude | Speed | Heading |
|---|---|---|---|---|---|
| 2026-04-29 10:48 | 52.31261 | 4.76068 | 4 ft | 0 kts | 109° |
| 2026-04-29 11:02 | 52.31263 | 4.76059 | 4 ft | 2 kts | 108° |
| 2026-04-29 11:02 | 52.31268 | 4.76028 | 4 ft | 3 kts | 98° |
| 2026-04-29 11:03 | 52.31270 | 4.75995 | 4 ft | 3 kts | 85° |
| 2026-04-29 11:03 | 52.31266 | 4.75964 | 4 ft | 3 kts | 62° |
| 2026-04-29 11:03 | 52.31256 | 4.75942 | 7 ft | 3 kts | 20° |
| 2026-04-29 11:03 | 52.31247 | 4.75938 | 6 ft | 0 kts | 357° |
| 2026-04-29 11:06 | 52.31255 | 4.75937 | 7 ft | 7 kts | 357° |
| 2026-04-29 11:06 | 52.31313 | 4.75933 | 4 ft | 8 kts | 357° |
| 2026-04-29 11:06 | 52.31391 | 4.75925 | 4 ft | 16 kts | 357° |
| 2026-04-29 11:06 | 52.31502 | 4.75897 | 4 ft | 13 kts | 324° |
| 2026-04-29 11:07 | 52.31521 | 4.75756 | 4 ft | 14 kts | 269° |
| 2026-04-29 11:07 | 52.31516 | 4.75586 | 4 ft | 15 kts | 267° |
| 2026-04-29 11:07 | 52.31509 | 4.75390 | 4 ft | 25 kts | 266° |
| 2026-04-29 11:07 | 52.31501 | 4.75113 | 4 ft | 24 kts | 267° |
| 2026-04-29 11:08 | 52.31491 | 4.74838 | 4 ft | 24 kts | 266° |
| 2026-04-29 11:08 | 52.31482 | 4.74563 | 4 ft | 24 kts | 267° |
| 2026-04-29 11:08 | 52.31487 | 4.74335 | 4 ft | 17 kts | 303° |
| 2026-04-29 11:08 | 52.31601 | 4.74303 | 4 ft | 20 kts | 4° |
| 2026-04-29 11:09 | 52.31762 | 4.74318 | 4 ft | 24 kts | 3° |
| 2026-04-29 11:09 | 52.31928 | 4.74334 | 4 ft | 24 kts | 3° |
| 2026-04-29 11:09 | 52.32028 | 4.74221 | 4 ft | 18 kts | 279° |
| 2026-04-29 11:09 | 52.32039 | 4.73995 | 3 ft | 22 kts | 274° |
| 2026-04-29 11:10 | 52.32047 | 4.73745 | 4 ft | 22 kts | 273° |
| 2026-04-29 11:10 | 52.32056 | 4.73491 | 4 ft | 22 kts | 276° |
| 2026-04-29 11:10 | 52.32136 | 4.73290 | 4 ft | 22 kts | 320° |
| 2026-04-29 11:10 | 52.32252 | 4.73126 | 4 ft | 22 kts | 319° |
| 2026-04-29 11:11 | 52.32386 | 4.72939 | 4 ft | 27 kts | 319° |
| 2026-04-29 11:11 | 52.32526 | 4.72740 | 4 ft | 27 kts | 319° |
| 2026-04-29 11:11 | 52.32666 | 4.72541 | 4 ft | 27 kts | 315° |
| 2026-04-29 11:11 | 52.32790 | 4.72316 | 4 ft | 27 kts | 311° |
| 2026-04-29 11:12 | 52.32912 | 4.72088 | 4 ft | 27 kts | 311° |
| 2026-04-29 11:12 | 52.33035 | 4.71862 | 4 ft | 27 kts | 311° |
| 2026-04-29 11:12 | 52.33105 | 4.71732 | 4 ft | 3 kts | 312° |
| 2026-04-29 11:12 | 52.33144 | 4.71576 | 4 ft | 19 kts | 264° |
| 2026-04-29 11:13 | 52.33077 | 4.71421 | 4 ft | 16 kts | 221° |
| 2026-04-29 11:13 | 52.33054 | 4.71387 | 4 ft | 0 kts | 221° |
| 2026-04-29 11:13 | 52.33051 | 4.71383 | 4 ft | 3 kts | 221° |
| 2026-04-29 11:14 | 52.33049 | 4.71381 | 4 ft | 0 kts | 221° |
| 2026-04-29 11:14 | 52.33019 | 4.71335 | 4 ft | 17 kts | 221° |
| 2026-04-29 11:14 | 52.32962 | 4.71255 | 4 ft | 7 kts | 221° |
| 2026-04-29 11:14 | 52.32940 | 4.71225 | 4 ft | 4 kts | 221° |
| 2026-04-29 11:15 | 52.32926 | 4.71204 | 4 ft | 0 kts | 221° |
| 2026-04-29 11:16 | 52.32925 | 4.71203 | 4 ft | 2 kts | 221° |
| 2026-04-29 11:16 | 52.32900 | 4.71167 | 4 ft | 3 kts | 221° |
| 2026-04-29 11:16 | 52.32888 | 4.71147 | 4 ft | 0 kts | 228° |
| 2026-04-29 11:16 | 52.32888 | 4.71146 | 4 ft | 0 kts | 228° |
| 2026-04-29 11:17 | 52.32887 | 4.71145 | 4 ft | 0 kts | 227° |
| 2026-04-29 11:18 | 52.32885 | 4.71141 | 4 ft | 2 kts | 229° |
| 2026-04-29 11:18 | 52.32876 | 4.71118 | 4 ft | 2 kts | 237° |
| 2026-04-29 11:18 | 52.32868 | 4.71095 | 3 ft | 2 kts | 247° |
| 2026-04-29 11:19 | 52.32866 | 4.71072 | 3 ft | 0 kts | 262° |
| 2026-04-29 11:19 | 52.32864 | 4.71025 | 3 ft | 7 kts | 268° |
| 2026-04-29 11:19 | 52.32867 | 4.70941 | 3 ft | 6 kts | 275° |
| 2026-04-29 11:20 | 52.32898 | 4.70901 | 3 ft | 7 kts | 351° |
| 2026-04-29 11:20 | 52.32923 | 4.70900 | 2 ft | 0 kts | 0° |
| 2026-04-29 11:23 | 52.33093 | 4.70914 | 1 ft | 64 kts | 3° |
| 2026-04-29 11:23 | 52.33830 | 4.70981 | 4 ft | 146 kts | 3° |
| 2026-04-29 11:24 | 52.35062 | 4.71077 | 162 ft | 195 kts | 8° |
| 2026-04-29 11:24 | 52.36415 | 4.71208 | 1162 ft | 185 kts | 8° |
| 2026-04-29 11:24 | 52.37699 | 4.71312 | 2065 ft | 190 kts | 9° |
| 2026-04-29 11:24 | 52.39109 | 4.71465 | 2442 ft | 215 kts | 9° |
| 2026-04-29 11:25 | 52.40703 | 4.71616 | 2639 ft | 243 kts | 8° |
| 2026-04-29 11:25 | 52.42433 | 4.71561 | 3176 ft | 260 kts | 351° |
| 2026-04-29 11:25 | 52.44100 | 4.70242 | 3832 ft | 276 kts | 323° |
| 2026-04-29 11:25 | 52.45475 | 4.68027 | 4568 ft | 279 kts | 315° |
| 2026-04-29 11:26 | 52.46714 | 4.62013 | 6070 ft | 289 kts | 271° |
| 2026-04-29 11:26 | 52.46728 | 4.58674 | 6741 ft | 295 kts | 271° |
| 2026-04-29 11:26 | 52.46566 | 4.55345 | 7443 ft | 294 kts | 252° |
| 2026-04-29 11:27 | 52.45546 | 4.52464 | 8039 ft | 293 kts | 221° |
| 2026-04-29 11:27 | 52.43934 | 4.50484 | 8724 ft | 291 kts | 209° |
| 2026-04-29 11:27 | 52.42278 | 4.48549 | 9266 ft | 297 kts | 224° |
| 2026-04-29 11:27 | 52.41138 | 4.45683 | 9817 ft | 302 kts | 242° |
| 2026-04-29 11:28 | 52.40180 | 4.42585 | 10502 ft | 304 kts | 241° |
| 2026-04-29 11:28 | 52.39196 | 4.39484 | 11026 ft | 315 kts | 241° |
| 2026-04-29 11:28 | 52.38130 | 4.36176 | 11188 ft | 339 kts | 240° |
| 2026-04-29 11:28 | 52.36991 | 4.32664 | 11417 ft | 361 kts | 240° |
| 2026-04-29 11:29 | 52.35786 | 4.28965 | 11605 ft | 382 kts | 240° |
| 2026-04-29 11:29 | 52.34517 | 4.25075 | 12303 ft | 389 kts | 240° |
| 2026-04-29 11:29 | 52.33264 | 4.21243 | 13116 ft | 394 kts | 240° |
| 2026-04-29 11:29 | 52.31958 | 4.17263 | 13923 ft | 400 kts | 240° |
| 2026-04-29 11:30 | 52.30539 | 4.13322 | 14642 ft | 403 kts | 234° |
| 2026-04-29 11:30 | 52.29451 | 4.10858 | 15136 ft | 405 kts | 231° |
| 2026-04-29 11:30 | 52.28845 | 4.09581 | 15403 ft | 406 kts | 230° |
| 2026-04-29 11:30 | 52.27059 | 4.05978 | 16148 ft | 410 kts | 229° |
| 2026-04-29 11:31 | 52.25242 | 4.02372 | 16972 ft | 412 kts | 229° |
| 2026-04-29 11:31 | 52.23435 | 3.98754 | 17849 ft | 413 kts | 230° |
| 2026-04-29 11:31 | 52.21627 | 3.95080 | 18571 ft | 418 kts | 230° |
| 2026-04-29 11:31 | 52.19814 | 3.91350 | 19291 ft | 420 kts | 230° |
| 2026-04-29 11:32 | 52.18023 | 3.87642 | 19919 ft | 425 kts | 230° |
| 2026-04-29 11:32 | 52.16188 | 3.83834 | 20545 ft | 429 kts | 230° |
| 2026-04-29 11:32 | 52.14333 | 3.79982 | 21066 ft | 436 kts | 230° |
| 2026-04-29 11:32 | 52.12443 | 3.76064 | 21628 ft | 441 kts | 230° |
| 2026-04-29 11:33 | 52.10543 | 3.72130 | 22282 ft | 445 kts | 230° |
| 2026-04-29 11:33 | 52.08620 | 3.68156 | 22844 ft | 450 kts | 230° |
| 2026-04-29 11:33 | 52.06672 | 3.64138 | 23437 ft | 454 kts | 230° |
| 2026-04-29 11:33 | 52.04705 | 3.60088 | 23981 ft | 459 kts | 230° |
| 2026-04-29 11:34 | 52.02716 | 3.55996 | 24368 ft | 463 kts | 230° |
| 2026-04-29 11:34 | 52.00723 | 3.51903 | 24325 ft | 460 kts | 230° |
| 2026-04-29 11:34 | 51.98750 | 3.47836 | 24332 ft | 460 kts | 231° |
| 2026-04-29 11:34 | 51.96828 | 3.43654 | 24336 ft | 462 kts | 232° |
| 2026-04-29 11:35 | 51.94940 | 3.39414 | 24329 ft | 462 kts | 232° |
| 2026-04-29 11:35 | 51.93069 | 3.35200 | 24327 ft | 461 kts | 232° |
| 2026-04-29 11:35 | 51.91185 | 3.31002 | 24325 ft | 462 kts | 232° |
| 2026-04-29 11:35 | 51.89306 | 3.26859 | 24324 ft | 462 kts | 231° |
| 2026-04-29 11:36 | 51.87415 | 3.22656 | 24319 ft | 459 kts | 234° |
| 2026-04-29 11:36 | 51.85868 | 3.18127 | 24311 ft | 463 kts | 245° |
| 2026-04-29 11:36 | 51.84789 | 3.13212 | 24319 ft | 465 kts | 253° |
| 2026-04-29 11:36 | 51.84171 | 3.08112 | 24313 ft | 463 kts | 263° |
| 2026-04-29 11:37 | 51.83867 | 3.02891 | 24612 ft | 467 kts | 264° |
| 2026-04-29 11:37 | 51.83580 | 2.97634 | 25133 ft | 470 kts | 264° |
| 2026-04-29 11:37 | 51.83277 | 2.92348 | 25574 ft | 474 kts | 264° |
| 2026-04-29 11:37 | 51.82949 | 2.87021 | 26047 ft | 477 kts | 263° |
| 2026-04-29 11:38 | 51.82601 | 2.81666 | 26479 ft | 482 kts | 263° |
| 2026-04-29 11:38 | 51.82241 | 2.76248 | 26894 ft | 486 kts | 263° |
| 2026-04-29 11:38 | 51.81876 | 2.70796 | 27292 ft | 490 kts | 263° |
| 2026-04-29 11:38 | 51.81504 | 2.65286 | 27692 ft | 494 kts | 263° |
| 2026-04-29 11:39 | 51.81127 | 2.59759 | 28126 ft | 497 kts | 263° |
| 2026-04-29 11:39 | 51.80637 | 2.54223 | 28452 ft | 501 kts | 258° |
| 2026-04-29 11:39 | 51.79758 | 2.48752 | 28731 ft | 505 kts | 251° |
| 2026-04-29 11:39 | 51.78676 | 2.43397 | 28984 ft | 510 kts | 250° |
| 2026-04-29 11:40 | 51.77533 | 2.37958 | 29334 ft | 513 kts | 250° |
| 2026-04-29 11:40 | 51.76374 | 2.32477 | 29753 ft | 513 kts | 250° |
| 2026-04-29 11:40 | 51.75233 | 2.27026 | 30287 ft | 511 kts | 250° |
| 2026-04-29 11:40 | 51.74108 | 2.21579 | 30757 ft | 510 kts | 250° |
| 2026-04-29 11:41 | 51.72998 | 2.16149 | 31184 ft | 509 kts | 250° |
| 2026-04-29 11:41 | 51.71911 | 2.10798 | 31577 ft | 508 kts | 250° |
| 2026-04-29 11:41 | 51.70811 | 2.05377 | 31960 ft | 507 kts | 250° |
| 2026-04-29 11:41 | 51.69714 | 1.99983 | 32351 ft | 506 kts | 250° |
| 2026-04-29 11:42 | 51.68615 | 1.94592 | 32748 ft | 505 kts | 250° |
| 2026-04-29 11:42 | 51.67516 | 1.89221 | 33125 ft | 505 kts | 250° |
| 2026-04-29 11:42 | 51.66415 | 1.83857 | 33489 ft | 504 kts | 250° |
| 2026-04-29 11:42 | 51.65310 | 1.78496 | 33849 ft | 503 kts | 250° |
| 2026-04-29 11:43 | 51.64207 | 1.73159 | 34202 ft | 502 kts | 250° |
| 2026-04-29 11:43 | 51.63097 | 1.67804 | 34300 ft | 506 kts | 249° |
| 2026-04-29 11:43 | 51.60861 | 1.57066 | 34298 ft | 503 kts | 249° |
| 2026-04-29 11:44 | 51.58643 | 1.46453 | 34309 ft | 499 kts | 249° |
| 2026-04-29 11:44 | 51.56426 | 1.35915 | 34310 ft | 498 kts | 249° |
| 2026-04-29 11:45 | 51.54214 | 1.25452 | 34313 ft | 498 kts | 249° |
| 2026-04-29 11:45 | 51.51977 | 1.14926 | 34313 ft | 498 kts | 248° |
| 2026-04-29 11:46 | 51.49726 | 1.04390 | 34316 ft | 499 kts | 248° |
| 2026-04-29 11:46 | 51.47463 | 0.93851 | 34312 ft | 499 kts | 248° |
| 2026-04-29 11:47 | 51.45191 | 0.83321 | 34319 ft | 500 kts | 248° |
| 2026-04-29 11:47 | 51.42906 | 0.72788 | 34317 ft | 500 kts | 248° |
| 2026-04-29 11:48 | 51.40728 | 0.62217 | 34312 ft | 501 kts | 251° |
| 2026-04-29 11:48 | 51.38843 | 0.51472 | 34307 ft | 501 kts | 252° |
| 2026-04-29 11:49 | 51.36998 | 0.40728 | 34394 ft | 501 kts | 251° |
| 2026-04-29 11:49 | 51.35426 | 0.31820 | 34285 ft | 500 kts | 251° |
| 2026-04-29 11:50 | 51.33676 | 0.22105 | 34295 ft | 499 kts | 251° |
| 2026-04-29 11:50 | 51.31739 | 0.11458 | 34298 ft | 498 kts | 251° |
| 2026-04-29 11:51 | 51.29797 | 0.00845 | 34297 ft | 497 kts | 251° |
| 2026-04-29 11:51 | 51.27861 | -0.09699 | 34291 ft | 493 kts | 250° |
| 2026-04-29 11:52 | 51.25916 | -0.20217 | 34246 ft | 492 kts | 250° |
| 2026-04-29 11:52 | 51.23972 | -0.30679 | 34248 ft | 491 kts | 250° |
| 2026-04-29 11:53 | 51.22022 | -0.41108 | 34246 ft | 490 kts | 250° |
| 2026-04-29 11:53 | 51.20072 | -0.51494 | 34243 ft | 488 kts | 250° |
| 2026-04-29 11:54 | 51.18113 | -0.61852 | 34235 ft | 487 kts | 250° |
| 2026-04-29 11:54 | 51.16151 | -0.72174 | 34243 ft | 486 kts | 249° |
| 2026-04-29 11:55 | 51.14185 | -0.82467 | 34244 ft | 485 kts | 249° |
| 2026-04-29 11:55 | 51.12212 | -0.92737 | 34242 ft | 485 kts | 249° |
| 2026-04-29 11:56 | 51.10232 | -1.02996 | 34235 ft | 484 kts | 249° |
| 2026-04-29 11:56 | 51.08247 | -1.13218 | 34233 ft | 484 kts | 249° |
| 2026-04-29 11:57 | 51.06267 | -1.23363 | 34211 ft | 483 kts | 249° |
| 2026-04-29 11:57 | 51.04268 | -1.33539 | 34212 ft | 482 kts | 249° |
| 2026-04-29 11:58 | 51.02263 | -1.43709 | 34219 ft | 481 kts | 249° |
| 2026-04-29 11:58 | 51.00254 | -1.53835 | 34205 ft | 481 kts | 249° |
| 2026-04-29 11:59 | 50.98239 | -1.63941 | 34206 ft | 480 kts | 249° |
| 2026-04-29 11:59 | 50.96218 | -1.74031 | 34200 ft | 479 kts | 249° |
| 2026-04-29 12:00 | 50.94188 | -1.84108 | 34188 ft | 479 kts | 249° |
| 2026-04-29 12:00 | 50.92150 | -1.94174 | 34190 ft | 479 kts | 248° |
| 2026-04-29 12:01 | 50.90102 | -2.04237 | 34179 ft | 480 kts | 248° |
| 2026-04-29 12:01 | 50.88042 | -2.14308 | 34187 ft | 481 kts | 248° |
| 2026-04-29 12:02 | 50.85969 | -2.24395 | 34188 ft | 482 kts | 248° |
| 2026-04-29 12:02 | 50.83897 | -2.34427 | 34182 ft | 483 kts | 248° |
| 2026-04-29 12:03 | 50.81799 | -2.44538 | 34183 ft | 483 kts | 248° |
| 2026-04-29 12:03 | 50.79735 | -2.54660 | 34188 ft | 485 kts | 251° |
| 2026-04-29 12:04 | 50.78388 | -2.65149 | 34187 ft | 488 kts | 257° |
| 2026-04-29 12:04 | 50.77207 | -2.75729 | 34180 ft | 488 kts | 257° |
| 2026-04-29 12:05 | 50.76002 | -2.86225 | 34176 ft | 488 kts | 256° |
| 2026-04-29 12:05 | 50.74755 | -2.96774 | 34165 ft | 488 kts | 256° |
| 2026-04-29 12:06 | 50.73492 | -3.07312 | 34163 ft | 489 kts | 256° |
| 2026-04-29 12:06 | 50.72220 | -3.17859 | 34165 ft | 489 kts | 256° |
| 2026-04-29 12:07 | 50.70938 | -3.28402 | 34163 ft | 489 kts | 256° |
| 2026-04-29 12:07 | 50.69646 | -3.38946 | 34161 ft | 490 kts | 256° |
| 2026-04-29 12:08 | 50.68344 | -3.49489 | 34158 ft | 489 kts | 256° |
| 2026-04-29 12:08 | 50.67034 | -3.60020 | 34163 ft | 490 kts | 255° |
| 2026-04-29 12:09 | 50.65713 | -3.70555 | 34150 ft | 490 kts | 255° |
| 2026-04-29 12:09 | 50.64392 | -3.81017 | 34175 ft | 490 kts | 255° |
| 2026-04-29 12:10 | 50.63053 | -3.91541 | 34155 ft | 490 kts | 255° |
| 2026-04-29 12:10 | 50.61670 | -4.02072 | 34145 ft | 491 kts | 254° |
| 2026-04-29 12:11 | 50.60221 | -4.12601 | 34152 ft | 492 kts | 254° |
| 2026-04-29 12:11 | 50.58754 | -4.23164 | 34143 ft | 494 kts | 254° |
| 2026-04-29 12:12 | 50.57286 | -4.33737 | 34144 ft | 495 kts | 254° |
| 2026-04-29 12:12 | 50.55808 | -4.44332 | 34141 ft | 496 kts | 254° |
| 2026-04-29 12:13 | 50.54329 | -4.54875 | 34128 ft | 497 kts | 254° |
| 2026-04-29 12:13 | 50.52829 | -4.65480 | 34115 ft | 497 kts | 254° |
| 2026-04-29 12:14 | 50.51322 | -4.76060 | 34113 ft | 496 kts | 254° |
| 2026-04-29 12:14 | 50.49803 | -4.86644 | 34102 ft | 496 kts | 254° |
| 2026-04-29 12:15 | 50.48277 | -4.97208 | 34111 ft | 496 kts | 254° |
| 2026-04-29 12:15 | 50.46742 | -5.07769 | 34106 ft | 496 kts | 253° |
| 2026-04-29 12:16 | 50.45207 | -5.18250 | 34108 ft | 496 kts | 253° |
| 2026-04-29 12:16 | 50.43650 | -5.28805 | 34109 ft | 496 kts | 253° |
| 2026-04-29 12:17 | 50.42084 | -5.39358 | 34106 ft | 497 kts | 253° |
| 2026-04-29 12:17 | 50.40506 | -5.49913 | 34104 ft | 498 kts | 253° |
| 2026-04-29 12:18 | 50.38916 | -5.60479 | 34097 ft | 498 kts | 253° |
| 2026-04-29 12:18 | 50.37313 | -5.71063 | 34100 ft | 499 kts | 253° |
| 2026-04-29 12:19 | 50.35701 | -5.81638 | 34100 ft | 500 kts | 253° |
| 2026-04-29 12:19 | 50.34077 | -5.92222 | 34104 ft | 500 kts | 253° |
| 2026-04-29 12:20 | 50.32442 | -6.02806 | 34110 ft | 501 kts | 253° |
| 2026-04-29 12:20 | 50.30805 | -6.13328 | 34110 ft | 501 kts | 253° |
| 2026-04-29 12:21 | 50.29148 | -6.23919 | 34098 ft | 501 kts | 253° |
| 2026-04-29 12:21 | 50.27479 | -6.34510 | 34103 ft | 502 kts | 253° |
| 2026-04-29 12:22 | 50.25801 | -6.45094 | 34110 ft | 502 kts | 253° |
| 2026-04-29 12:22 | 50.24109 | -6.55699 | 34105 ft | 503 kts | 253° |
| 2026-04-29 12:23 | 50.22405 | -6.66310 | 34107 ft | 504 kts | 253° |
| 2026-04-29 12:23 | 50.20689 | -6.76922 | 34109 ft | 504 kts | 253° |
| 2026-04-29 12:24 | 50.18962 | -6.87542 | 34111 ft | 505 kts | 253° |
| 2026-04-29 12:24 | 50.17233 | -6.98103 | 34111 ft | 506 kts | 253° |
| 2026-04-29 12:25 | 50.15481 | -7.08745 | 34110 ft | 506 kts | 253° |
| 2026-04-29 12:26 | 50.12833 | -7.24695 | 34104 ft | 506 kts | 253° |
| 2026-04-29 12:26 | 50.11056 | -7.35317 | 34102 ft | 507 kts | 253° |
| 2026-04-29 12:27 | 50.09267 | -7.45943 | 34098 ft | 507 kts | 253° |
| 2026-04-29 12:27 | 50.07471 | -7.56552 | 34105 ft | 507 kts | 253° |
| 2026-04-29 12:28 | 50.05661 | -7.67172 | 34107 ft | 507 kts | 253° |
| 2026-04-29 12:28 | 50.03853 | -7.77719 | 34111 ft | 508 kts | 253° |
| 2026-04-29 12:29 | 50.02024 | -7.88334 | 34108 ft | 509 kts | 253° |
| 2026-04-29 12:29 | 50.00168 | -7.98943 | 34101 ft | 508 kts | 251° |
| 2026-04-29 12:30 | 49.97653 | -8.09189 | 34109 ft | 506 kts | 244° |
| 2026-04-29 12:30 | 49.94888 | -8.19256 | 34101 ft | 507 kts | 244° |
| 2026-04-29 12:31 | 49.92129 | -8.29331 | 34088 ft | 508 kts | 244° |
| 2026-04-29 12:31 | 49.89386 | -8.39432 | 34100 ft | 508 kts | 245° |
| 2026-04-29 12:32 | 49.86660 | -8.49477 | 34112 ft | 509 kts | 245° |
| 2026-04-29 12:32 | 49.83903 | -8.59597 | 34093 ft | 509 kts | 244° |
| 2026-04-29 12:33 | 49.81138 | -8.69693 | 34094 ft | 509 kts | 244° |
| 2026-04-29 12:33 | 49.78359 | -8.79790 | 34088 ft | 510 kts | 244° |
| 2026-04-29 12:34 | 49.75570 | -8.89883 | 34094 ft | 510 kts | 244° |
| 2026-04-29 12:34 | 49.72774 | -8.99958 | 34094 ft | 510 kts | 244° |
| 2026-04-29 12:35 | 49.70002 | -9.09897 | 33357 ft | 491 kts | 246° |
| 2026-04-29 12:35 | 49.69115 | -9.13068 | 33492 ft | 479 kts | 246° |
| 2026-04-29 12:35 | 49.67370 | -9.19303 | 33748 ft | 471 kts | 246° |
| 2026-04-29 12:35 | 49.66079 | -9.23903 | 33875 ft | 474 kts | 246° |
| 2026-04-29 12:36 | 49.64760 | -9.28597 | 33947 ft | 478 kts | 246° |
| 2026-04-29 12:36 | 49.62085 | -9.38078 | 33993 ft | 484 kts | 246° |
| 2026-04-29 12:37 | 49.59390 | -9.47594 | 34003 ft | 485 kts | 246° |
| 2026-04-29 12:37 | 49.56684 | -9.57109 | 33999 ft | 484 kts | 246° |
| 2026-04-29 12:38 | 49.54434 | -9.64994 | 34000 ft | 483 kts | 246° |
| 2026-04-29 12:38 | 49.51730 | -9.74434 | 34000 ft | 481 kts | 246° |
| 2026-04-29 12:39 | 49.49023 | -9.83846 | 34000 ft | 480 kts | 246° |
| 2026-04-29 12:39 | 49.46320 | -9.93209 | 34001 ft | 479 kts | 246° |
| 2026-04-29 12:40 | 49.43612 | -10.02554 | 34001 ft | 478 kts | 246° |
| 2026-04-29 12:40 | 49.40899 | -10.11881 | 34001 ft | 478 kts | 246° |
| 2026-04-29 12:41 | 49.38178 | -10.21196 | 34002 ft | 479 kts | 245° |
| 2026-04-29 12:41 | 49.35462 | -10.30459 | 34002 ft | 479 kts | 245° |
| 2026-04-29 12:42 | 49.32718 | -10.39782 | 34002 ft | 480 kts | 245° |
| 2026-04-29 12:42 | 49.29964 | -10.49105 | 34002 ft | 480 kts | 245° |
| 2026-04-29 12:43 | 49.27201 | -10.58421 | 34002 ft | 481 kts | 245° |
| 2026-04-29 12:43 | 49.24428 | -10.67737 | 34002 ft | 481 kts | 245° |
| 2026-04-29 12:44 | 49.21649 | -10.77033 | 34001 ft | 481 kts | 245° |
| 2026-04-29 12:44 | 49.18859 | -10.86335 | 34001 ft | 481 kts | 245° |
| 2026-04-29 12:45 | 49.16064 | -10.95614 | 34001 ft | 480 kts | 245° |
| 2026-04-29 12:45 | 49.13266 | -11.04872 | 34001 ft | 480 kts | 245° |
| 2026-04-29 12:46 | 49.10455 | -11.14136 | 34002 ft | 480 kts | 245° |
| 2026-04-29 12:46 | 49.07642 | -11.23372 | 34001 ft | 480 kts | 245° |
| 2026-04-29 12:47 | 49.04821 | -11.32600 | 34001 ft | 480 kts | 245° |
| 2026-04-29 12:47 | 49.02011 | -11.41759 | 34000 ft | 480 kts | 245° |
| 2026-04-29 12:48 | 48.99173 | -11.50973 | 34001 ft | 480 kts | 245° |
| 2026-04-29 12:48 | 48.96332 | -11.60165 | 34002 ft | 480 kts | 244° |
| 2026-04-29 12:49 | 48.93482 | -11.69352 | 34002 ft | 480 kts | 244° |
| 2026-04-29 12:49 | 48.90624 | -11.78530 | 34001 ft | 480 kts | 244° |
| 2026-04-29 12:50 | 48.87778 | -11.87640 | 34001 ft | 480 kts | 244° |
| 2026-04-29 12:50 | 48.84908 | -11.96794 | 34001 ft | 480 kts | 244° |
| 2026-04-29 12:51 | 48.81668 | -12.05641 | 34006 ft | 479 kts | 238° |
| 2026-04-29 12:51 | 48.78083 | -12.14174 | 34002 ft | 480 kts | 237° |
| 2026-04-29 12:52 | 48.74491 | -12.22689 | 34002 ft | 480 kts | 237° |
| 2026-04-29 12:52 | 48.70910 | -12.31227 | 34001 ft | 480 kts | 237° |
| 2026-04-29 12:53 | 48.67336 | -12.39760 | 34002 ft | 480 kts | 237° |
| 2026-04-29 12:53 | 48.63756 | -12.48290 | 34001 ft | 480 kts | 237° |
| 2026-04-29 12:54 | 48.60170 | -12.56805 | 34000 ft | 480 kts | 237° |
| 2026-04-29 12:54 | 48.56576 | -12.65309 | 34002 ft | 480 kts | 237° |
| 2026-04-29 12:55 | 48.52980 | -12.73790 | 34002 ft | 480 kts | 237° |
| 2026-04-29 12:55 | 48.49394 | -12.82221 | 34001 ft | 480 kts | 237° |
| 2026-04-29 12:56 | 48.45759 | -12.90741 | 34001 ft | 480 kts | 237° |
| 2026-04-29 12:56 | 48.42167 | -12.99133 | 34002 ft | 480 kts | 237° |
| 2026-04-29 12:57 | 48.38545 | -13.07569 | 34002 ft | 480 kts | 237° |
| 2026-04-29 12:57 | 48.34912 | -13.16004 | 34000 ft | 480 kts | 237° |
| 2026-04-29 12:58 | 48.31280 | -13.24412 | 34001 ft | 480 kts | 237° |
| 2026-04-29 12:58 | 48.27640 | -13.32810 | 34002 ft | 480 kts | 237° |
| 2026-04-29 12:59 | 48.23994 | -13.41198 | 34002 ft | 480 kts | 237° |
| 2026-04-29 12:59 | 48.20337 | -13.49583 | 34001 ft | 480 kts | 237° |
| 2026-04-29 13:00 | 48.16673 | -13.57958 | 34001 ft | 480 kts | 237° |
| 2026-04-29 13:00 | 48.13032 | -13.66257 | 34001 ft | 480 kts | 237° |
| 2026-04-29 13:01 | 48.09359 | -13.74601 | 34834 ft | 481 kts | 239° |
| 2026-04-29 13:01 | 48.07493 | -13.78831 | 34579 ft | 493 kts | 239° |
| 2026-04-29 13:01 | 48.05582 | -13.83165 | 34414 ft | 505 kts | 239° |
| 2026-04-29 13:01 | 48.03632 | -13.87577 | 34274 ft | 513 kts | 239° |
| 2026-04-29 13:02 | 48.01651 | -13.92051 | 34204 ft | 517 kts | 239° |
| 2026-04-29 13:02 | 47.97663 | -14.01017 | 34100 ft | 516 kts | 239° |
| 2026-04-29 13:03 | 47.93700 | -14.09895 | 34081 ft | 512 kts | 239° |
| 2026-04-29 13:03 | 47.89756 | -14.18709 | 34080 ft | 509 kts | 239° |
| 2026-04-29 13:04 | 47.85827 | -14.27466 | 34076 ft | 507 kts | 239° |
| 2026-04-29 13:04 | 47.81935 | -14.36113 | 34080 ft | 506 kts | 239° |
| 2026-04-29 13:05 | 47.78013 | -14.44798 | 34080 ft | 505 kts | 239° |
| 2026-04-29 13:05 | 47.74085 | -14.53470 | 34084 ft | 506 kts | 239° |
| 2026-04-29 13:06 | 47.70147 | -14.62137 | 34078 ft | 506 kts | 239° |
| 2026-04-29 13:06 | 47.66198 | -14.70797 | 34092 ft | 506 kts | 239° |
| 2026-04-29 13:07 | 47.62249 | -14.79432 | 34081 ft | 505 kts | 239° |
| 2026-04-29 13:07 | 47.58298 | -14.88042 | 34079 ft | 504 kts | 239° |
| 2026-04-29 13:08 | 47.54354 | -14.96612 | 34076 ft | 503 kts | 239° |
| 2026-04-29 13:08 | 47.50415 | -15.05143 | 34080 ft | 501 kts | 239° |
| 2026-04-29 13:09 | 47.46484 | -15.13632 | 34080 ft | 500 kts | 239° |
| 2026-04-29 13:09 | 47.42579 | -15.22039 | 34084 ft | 498 kts | 239° |
| 2026-04-29 13:10 | 47.38629 | -15.30515 | 34081 ft | 497 kts | 239° |
| 2026-04-29 13:10 | 47.34708 | -15.38904 | 34084 ft | 497 kts | 239° |
| 2026-04-29 13:11 | 47.30808 | -15.47225 | 34081 ft | 496 kts | 239° |
| 2026-04-29 13:11 | 47.26872 | -15.55595 | 34081 ft | 496 kts | 239° |
| 2026-04-29 13:12 | 47.22937 | -15.63939 | 34078 ft | 496 kts | 239° |
| 2026-04-29 13:12 | 47.18993 | -15.72276 | 34081 ft | 496 kts | 239° |
| 2026-04-29 13:13 | 47.15040 | -15.80605 | 34081 ft | 496 kts | 239° |
| 2026-04-29 13:13 | 47.11086 | -15.88913 | 34078 ft | 496 kts | 239° |
| 2026-04-29 13:14 | 47.07161 | -15.97136 | 34077 ft | 495 kts | 239° |
| 2026-04-29 13:14 | 47.03205 | -16.05398 | 34073 ft | 495 kts | 239° |
| 2026-04-29 13:15 | 46.99250 | -16.13632 | 34081 ft | 494 kts | 239° |
| 2026-04-29 13:15 | 46.95295 | -16.21845 | 34077 ft | 493 kts | 239° |
| 2026-04-29 13:16 | 46.91336 | -16.30041 | 34077 ft | 492 kts | 239° |
| 2026-04-29 13:16 | 46.87381 | -16.38204 | 34075 ft | 492 kts | 239° |
| 2026-04-29 13:17 | 46.83422 | -16.46351 | 34076 ft | 491 kts | 238° |
| 2026-04-29 13:17 | 46.79463 | -16.54475 | 34082 ft | 491 kts | 238° |
| 2026-04-29 13:18 | 46.75500 | -16.62584 | 34076 ft | 491 kts | 238° |
| 2026-04-29 13:18 | 46.71531 | -16.70680 | 34072 ft | 491 kts | 238° |
| 2026-04-29 13:19 | 46.67559 | -16.78760 | 34074 ft | 490 kts | 238° |
| 2026-04-29 13:19 | 46.63577 | -16.86834 | 34073 ft | 490 kts | 238° |
| 2026-04-29 13:20 | 46.59619 | -16.94839 | 34074 ft | 490 kts | 237° |
| 2026-04-29 13:20 | 46.55635 | -17.02873 | 34069 ft | 490 kts | 237° |
| 2026-04-29 13:21 | 46.51645 | -17.10895 | 34067 ft | 489 kts | 237° |
| 2026-04-29 13:21 | 46.47653 | -17.18900 | 34069 ft | 489 kts | 237° |
| 2026-04-29 13:22 | 46.43660 | -17.26881 | 34071 ft | 488 kts | 237° |
| 2026-04-29 13:22 | 46.39666 | -17.34844 | 34069 ft | 488 kts | 237° |
| 2026-04-29 13:23 | 46.35676 | -17.42775 | 34065 ft | 487 kts | 237° |
| 2026-04-29 13:23 | 46.31711 | -17.50635 | 34059 ft | 487 kts | 236° |
| 2026-04-29 13:24 | 46.27714 | -17.58535 | 34060 ft | 486 kts | 236° |
| 2026-04-29 13:24 | 46.23717 | -17.66415 | 34071 ft | 485 kts | 236° |
| 2026-04-29 13:25 | 46.19718 | -17.74274 | 34061 ft | 485 kts | 236° |
| 2026-04-29 13:25 | 46.14396 | -17.84701 | 34055 ft | 484 kts | 236° |
| 2026-04-29 13:26 | 46.10396 | -17.92513 | 34062 ft | 484 kts | 236° |
| 2026-04-29 13:26 | 46.06390 | -18.00314 | 34055 ft | 484 kts | 236° |
| 2026-04-29 13:27 | 46.02384 | -18.08094 | 34054 ft | 483 kts | 236° |
| 2026-04-29 13:27 | 45.98371 | -18.15867 | 34055 ft | 483 kts | 235° |
| 2026-04-29 13:28 | 45.94361 | -18.23611 | 34054 ft | 483 kts | 235° |
| 2026-04-29 13:28 | 45.90370 | -18.31298 | 34050 ft | 483 kts | 235° |
| 2026-04-29 13:29 | 45.86349 | -18.39021 | 34049 ft | 482 kts | 235° |
| 2026-04-29 13:29 | 45.82327 | -18.46725 | 34050 ft | 482 kts | 235° |
| 2026-04-29 13:30 | 45.78294 | -18.54430 | 34051 ft | 482 kts | 235° |
| 2026-04-29 13:30 | 45.74265 | -18.62105 | 34050 ft | 482 kts | 234° |
| 2026-04-29 13:31 | 45.70228 | -18.69775 | 34046 ft | 482 kts | 234° |
| 2026-04-29 13:31 | 45.66187 | -18.77432 | 34045 ft | 482 kts | 234° |
| 2026-04-29 13:32 | 45.62166 | -18.85032 | 34038 ft | 482 kts | 234° |
| 2026-04-29 13:32 | 45.58120 | -18.92655 | 34044 ft | 481 kts | 234° |
| 2026-04-29 13:33 | 45.54070 | -19.00268 | 34039 ft | 481 kts | 234° |
| 2026-04-29 13:33 | 45.50018 | -19.07865 | 34036 ft | 481 kts | 234° |
| 2026-04-29 13:34 | 45.45956 | -19.15457 | 34038 ft | 481 kts | 234° |
| 2026-04-29 13:34 | 45.41894 | -19.23033 | 34034 ft | 481 kts | 234° |
| 2026-04-29 13:35 | 45.37825 | -19.30596 | 34037 ft | 481 kts | 234° |
| 2026-04-29 13:35 | 45.33756 | -19.38145 | 34026 ft | 481 kts | 234° |
| 2026-04-29 13:36 | 45.29682 | -19.45681 | 34028 ft | 481 kts | 233° |
| 2026-04-29 13:36 | 45.25603 | -19.53204 | 34026 ft | 480 kts | 233° |
| 2026-04-29 13:37 | 45.21520 | -19.60719 | 34020 ft | 480 kts | 233° |
| 2026-04-29 13:37 | 45.17438 | -19.68209 | 34022 ft | 480 kts | 233° |
| 2026-04-29 13:38 | 45.13352 | -19.75687 | 34021 ft | 480 kts | 233° |
| 2026-04-29 13:38 | 45.09287 | -19.83110 | 34016 ft | 479 kts | 233° |
| 2026-04-29 13:39 | 45.05199 | -19.90556 | 34013 ft | 479 kts | 233° |
| 2026-04-29 13:39 | 45.01105 | -19.97994 | 34016 ft | 479 kts | 233° |
| 2026-04-29 13:40 | 44.96946 | -20.05347 | 34009 ft | 479 kts | 231° |
| 2026-04-29 13:40 | 44.92677 | -20.12553 | 34010 ft | 479 kts | 230° |
| 2026-04-29 13:41 | 44.88389 | -20.19753 | 34003 ft | 478 kts | 230° |
| 2026-04-29 13:41 | 44.84117 | -20.26955 | 34004 ft | 478 kts | 231° |
| 2026-04-29 13:42 | 44.79855 | -20.34146 | 34005 ft | 478 kts | 230° |
| 2026-04-29 13:42 | 44.75595 | -20.41323 | 34003 ft | 478 kts | 230° |
| 2026-04-29 13:43 | 44.71361 | -20.48436 | 34003 ft | 478 kts | 230° |
| 2026-04-29 13:43 | 44.67091 | -20.55592 | 33998 ft | 477 kts | 230° |
| 2026-04-29 13:44 | 44.62816 | -20.62735 | 33999 ft | 478 kts | 230° |
| 2026-04-29 13:44 | 44.58538 | -20.69865 | 33997 ft | 477 kts | 230° |
| 2026-04-29 13:45 | 44.54256 | -20.76987 | 33994 ft | 477 kts | 230° |
| 2026-04-29 13:45 | 44.49972 | -20.84092 | 33993 ft | 477 kts | 230° |
| 2026-04-29 13:46 | 44.45688 | -20.91180 | 33991 ft | 476 kts | 230° |
| 2026-04-29 13:46 | 44.41402 | -20.98254 | 33992 ft | 476 kts | 230° |
| 2026-04-29 13:47 | 44.37119 | -21.05305 | 33990 ft | 475 kts | 230° |
| 2026-04-29 13:47 | 44.32838 | -21.12335 | 33988 ft | 474 kts | 230° |
| 2026-04-29 13:48 | 44.28563 | -21.19339 | 33987 ft | 474 kts | 230° |
| 2026-04-29 13:48 | 44.24312 | -21.26286 | 33984 ft | 473 kts | 229° |
| 2026-04-29 13:49 | 44.20038 | -21.33253 | 33986 ft | 473 kts | 229° |
| 2026-04-29 13:49 | 44.15760 | -21.40211 | 33985 ft | 472 kts | 229° |
| 2026-04-29 13:50 | 44.11482 | -21.47150 | 33983 ft | 472 kts | 229° |
| 2026-04-29 13:50 | 44.07207 | -21.54070 | 33983 ft | 472 kts | 229° |
| 2026-04-29 13:51 | 44.02927 | -21.60980 | 33978 ft | 471 kts | 229° |
| 2026-04-29 13:51 | 43.98645 | -21.67876 | 33976 ft | 471 kts | 229° |
| 2026-04-29 13:52 | 43.94363 | -21.74755 | 33974 ft | 470 kts | 229° |
| 2026-04-29 13:52 | 43.90082 | -21.81617 | 33970 ft | 470 kts | 229° |
| 2026-04-29 13:53 | 43.85828 | -21.88419 | 33968 ft | 469 kts | 229° |
| 2026-04-29 13:53 | 43.81546 | -21.95249 | 33966 ft | 469 kts | 229° |
| 2026-04-29 13:54 | 43.77266 | -22.02062 | 33961 ft | 469 kts | 228° |
| 2026-04-29 13:54 | 43.72983 | -22.08862 | 33962 ft | 468 kts | 228° |
| 2026-04-29 13:55 | 43.68697 | -22.15650 | 33959 ft | 468 kts | 228° |
| 2026-04-29 13:55 | 43.64411 | -22.22422 | 33952 ft | 468 kts | 228° |
| 2026-04-29 13:56 | 43.60120 | -22.29186 | 33953 ft | 468 kts | 228° |
| 2026-04-29 13:56 | 43.55857 | -22.35892 | 33950 ft | 468 kts | 227° |
| 2026-04-29 13:57 | 43.51564 | -22.42627 | 33950 ft | 468 kts | 227° |
| 2026-04-29 13:57 | 43.47967 | -22.48259 | 33948 ft | 467 kts | 227° |
| 2026-04-29 13:58 | 43.42974 | -22.56058 | 33963 ft | 468 kts | 227° |
| 2026-04-29 13:58 | 43.40819 | -22.59418 | 34221 ft | 468 kts | 227° |
| 2026-04-29 13:58 | 43.38667 | -22.62770 | 34587 ft | 466 kts | 227° |
| 2026-04-29 13:59 | 43.36531 | -22.66091 | 34996 ft | 462 kts | 227° |
| 2026-04-29 13:59 | 43.34403 | -22.69397 | 35367 ft | 460 kts | 227° |
| 2026-04-29 13:59 | 43.32284 | -22.72687 | 35711 ft | 459 kts | 227° |
| 2026-04-29 13:59 | 43.30169 | -22.75964 | 35855 ft | 461 kts | 227° |
| 2026-04-29 14:00 | 43.25893 | -22.82580 | 35932 ft | 465 kts | 227° |
| 2026-04-29 14:00 | 43.21609 | -22.89193 | 35925 ft | 462 kts | 227° |
| 2026-04-29 14:01 | 43.17354 | -22.95749 | 35929 ft | 459 kts | 226° |
| 2026-04-29 14:01 | 43.13117 | -23.02260 | 35931 ft | 457 kts | 226° |
| 2026-04-29 14:02 | 43.08892 | -23.08738 | 35927 ft | 456 kts | 226° |
| 2026-04-29 14:02 | 43.04690 | -23.15166 | 35924 ft | 456 kts | 226° |
| 2026-04-29 14:03 | 43.00452 | -23.21635 | 35929 ft | 457 kts | 226° |
| 2026-04-29 14:03 | 42.96196 | -23.28116 | 35924 ft | 459 kts | 226° |
| 2026-04-29 14:04 | 42.91922 | -23.34611 | 35920 ft | 460 kts | 226° |
| 2026-04-29 14:04 | 42.87636 | -23.41110 | 35917 ft | 461 kts | 226° |
| 2026-04-29 14:05 | 42.83339 | -23.47612 | 35914 ft | 462 kts | 226° |
| 2026-04-29 14:05 | 42.79040 | -23.54101 | 35910 ft | 462 kts | 226° |
| 2026-04-29 14:06 | 42.74760 | -23.60549 | 35906 ft | 461 kts | 226° |
| 2026-04-29 14:06 | 42.70455 | -23.67018 | 35902 ft | 461 kts | 226° |
| 2026-04-29 14:07 | 42.66155 | -23.73465 | 35901 ft | 460 kts | 226° |
| 2026-04-29 14:07 | 42.61857 | -23.79894 | 35894 ft | 459 kts | 225° |
| 2026-04-29 14:08 | 42.57562 | -23.86307 | 35897 ft | 459 kts | 225° |
| 2026-04-29 14:08 | 42.53261 | -23.92712 | 35893 ft | 459 kts | 225° |
| 2026-04-29 14:09 | 42.48955 | -23.99112 | 35890 ft | 459 kts | 225° |
| 2026-04-29 14:09 | 42.44645 | -24.05502 | 35891 ft | 460 kts | 225° |
| 2026-04-29 14:10 | 42.40328 | -24.11890 | 35886 ft | 460 kts | 225° |
| 2026-04-29 14:10 | 42.36028 | -24.18238 | 35883 ft | 460 kts | 225° |
| 2026-04-29 14:11 | 42.31696 | -24.24620 | 35880 ft | 461 kts | 225° |
| 2026-04-29 14:11 | 42.27359 | -24.30997 | 35871 ft | 460 kts | 225° |
| 2026-04-29 14:12 | 42.23026 | -24.37352 | 35869 ft | 460 kts | 225° |
| 2026-04-29 14:12 | 42.18695 | -24.43691 | 35868 ft | 459 kts | 224° |
| 2026-04-29 14:13 | 42.14358 | -24.50025 | 35865 ft | 459 kts | 224° |
| 2026-04-29 14:13 | 42.10028 | -24.56335 | 35856 ft | 458 kts | 224° |
| 2026-04-29 14:14 | 42.05723 | -24.62594 | 35855 ft | 458 kts | 224° |
| 2026-04-29 14:14 | 42.01385 | -24.68888 | 35853 ft | 458 kts | 224° |
| 2026-04-29 14:15 | 41.97782 | -24.74104 | 35849 ft | 458 kts | 224° |
| 2026-04-29 14:15 | 41.93438 | -24.80382 | 35847 ft | 459 kts | 224° |
| 2026-04-29 14:16 | 41.89085 | -24.86660 | 35842 ft | 460 kts | 224° |
| 2026-04-29 14:16 | 41.84719 | -24.92943 | 35839 ft | 460 kts | 223° |
| 2026-04-29 14:17 | 41.80339 | -24.99232 | 35817 ft | 461 kts | 223° |
| 2026-04-29 14:17 | 41.75952 | -25.05518 | 35820 ft | 462 kts | 223° |
| 2026-04-29 14:18 | 41.71552 | -25.11809 | 35811 ft | 463 kts | 223° |
| 2026-04-29 14:18 | 41.67146 | -25.18095 | 35804 ft | 463 kts | 223° |
| 2026-04-29 14:19 | 41.62738 | -25.24373 | 35827 ft | 463 kts | 223° |
| 2026-04-29 14:19 | 41.58326 | -25.30640 | 35805 ft | 462 kts | 223° |
| 2026-04-29 14:20 | 41.53919 | -25.36888 | 35803 ft | 462 kts | 223° |
| 2026-04-29 14:20 | 41.49533 | -25.43091 | 35797 ft | 464 kts | 223° |
| 2026-04-29 14:21 | 41.45088 | -25.49364 | 35788 ft | 465 kts | 222° |
| 2026-04-29 14:21 | 41.40648 | -25.55618 | 35788 ft | 463 kts | 222° |
| 2026-04-29 14:22 | 41.36223 | -25.61840 | 35764 ft | 461 kts | 222° |
| 2026-04-29 14:22 | 41.31827 | -25.68008 | 35789 ft | 459 kts | 222° |
| 2026-04-29 14:23 | 41.27417 | -25.74179 | 35773 ft | 460 kts | 222° |
| 2026-04-29 14:23 | 41.23011 | -25.80333 | 35777 ft | 458 kts | 222° |
| 2026-04-29 14:24 | 41.18646 | -25.86418 | 35769 ft | 457 kts | 222° |
| 2026-04-29 14:24 | 41.14259 | -25.92520 | 35774 ft | 458 kts | 222° |
| 2026-04-29 14:25 | 41.09854 | -25.98632 | 35765 ft | 458 kts | 221° |
| 2026-04-29 14:25 | 41.05441 | -26.04744 | 35764 ft | 459 kts | 221° |
| 2026-04-29 14:26 | 41.01022 | -26.10853 | 35765 ft | 460 kts | 221° |
| 2026-04-29 14:26 | 40.96582 | -26.16978 | 35767 ft | 461 kts | 221° |
| 2026-04-29 14:27 | 40.92130 | -26.23107 | 35769 ft | 462 kts | 221° |
| 2026-04-29 14:28 | 40.85429 | -26.32307 | 35768 ft | 464 kts | 221° |
| 2026-04-29 14:28 | 40.80971 | -26.38412 | 35767 ft | 465 kts | 221° |
| 2026-04-29 14:29 | 40.76469 | -26.44565 | 35766 ft | 466 kts | 221° |
| 2026-04-29 14:29 | 40.71957 | -26.50718 | 35772 ft | 466 kts | 221° |
| 2026-04-29 14:30 | 40.67439 | -26.56867 | 35775 ft | 467 kts | 221° |
| 2026-04-29 14:30 | 40.62903 | -26.63026 | 35764 ft | 469 kts | 221° |
| 2026-04-29 14:31 | 40.58367 | -26.69176 | 35775 ft | 468 kts | 221° |
| 2026-04-29 14:31 | 40.53835 | -26.75307 | 35763 ft | 467 kts | 221° |
| 2026-04-29 14:32 | 40.49308 | -26.81417 | 35766 ft | 466 kts | 221° |
| 2026-04-29 14:32 | 40.44789 | -26.87504 | 35765 ft | 465 kts | 221° |
| 2026-04-29 14:33 | 40.40266 | -26.93583 | 35769 ft | 465 kts | 221° |
| 2026-04-29 14:33 | 40.35735 | -26.99660 | 35770 ft | 466 kts | 221° |
| 2026-04-29 14:34 | 40.31194 | -27.05740 | 35776 ft | 467 kts | 221° |
| 2026-04-29 14:34 | 40.26670 | -27.11783 | 35776 ft | 468 kts | 221° |
| 2026-04-29 14:35 | 40.22102 | -27.17873 | 35778 ft | 469 kts | 221° |
| 2026-04-29 14:35 | 40.17514 | -27.23977 | 35775 ft | 470 kts | 221° |
| 2026-04-29 14:36 | 40.12915 | -27.30083 | 35775 ft | 472 kts | 221° |
| 2026-04-29 14:36 | 40.08302 | -27.36197 | 35779 ft | 473 kts | 221° |
| 2026-04-29 14:37 | 40.03681 | -27.42308 | 35782 ft | 473 kts | 222° |
| 2026-04-29 14:37 | 39.99044 | -27.48427 | 35776 ft | 474 kts | 222° |
| 2026-04-29 14:38 | 39.94432 | -27.54501 | 35779 ft | 474 kts | 222° |
| 2026-04-29 14:38 | 39.89789 | -27.60603 | 35784 ft | 474 kts | 222° |
| 2026-04-29 14:39 | 39.85138 | -27.66703 | 35782 ft | 474 kts | 222° |
| 2026-04-29 14:39 | 39.80488 | -27.72789 | 35772 ft | 474 kts | 222° |
| 2026-04-29 14:40 | 39.75840 | -27.78860 | 35776 ft | 474 kts | 222° |
| 2026-04-29 14:40 | 39.71187 | -27.84927 | 35783 ft | 474 kts | 222° |
| 2026-04-29 14:41 | 39.66531 | -27.90984 | 35787 ft | 474 kts | 222° |
| 2026-04-29 14:41 | 39.61863 | -27.97044 | 35786 ft | 475 kts | 222° |
| 2026-04-29 14:42 | 39.57188 | -28.03100 | 35786 ft | 475 kts | 222° |
| 2026-04-29 14:42 | 39.52507 | -28.09153 | 35785 ft | 476 kts | 223° |
| 2026-04-29 14:43 | 39.47806 | -28.15219 | 35785 ft | 477 kts | 223° |
| 2026-04-29 14:43 | 39.43132 | -28.21239 | 35787 ft | 477 kts | 223° |
| 2026-04-29 14:44 | 39.38422 | -28.27292 | 35787 ft | 477 kts | 223° |
| 2026-04-29 14:44 | 39.33707 | -28.33340 | 35786 ft | 478 kts | 223° |
| 2026-04-29 14:45 | 39.28977 | -28.39396 | 35787 ft | 478 kts | 223° |
| 2026-04-29 14:45 | 39.24251 | -28.45433 | 35784 ft | 478 kts | 224° |
| 2026-04-29 14:46 | 39.19528 | -28.51455 | 35786 ft | 477 kts | 224° |
| 2026-04-29 14:46 | 39.14803 | -28.57467 | 35785 ft | 477 kts | 224° |
| 2026-04-29 14:47 | 39.10077 | -28.63470 | 35788 ft | 477 kts | 224° |
| 2026-04-29 14:47 | 39.05346 | -28.69464 | 35786 ft | 477 kts | 224° |
| 2026-04-29 14:48 | 39.00624 | -28.75437 | 35785 ft | 476 kts | 225° |
| 2026-04-29 14:48 | 38.95897 | -28.81404 | 35789 ft | 476 kts | 225° |
| 2026-04-29 14:49 | 38.91173 | -28.87356 | 35791 ft | 476 kts | 225° |
| 2026-04-29 14:49 | 38.86472 | -28.93267 | 35786 ft | 476 kts | 225° |
| 2026-04-29 14:50 | 38.81742 | -28.99204 | 35789 ft | 476 kts | 225° |
| 2026-04-29 14:50 | 38.77002 | -29.05139 | 35792 ft | 476 kts | 225° |
| 2026-04-29 14:51 | 38.72262 | -29.11065 | 35787 ft | 476 kts | 225° |
| 2026-04-29 14:51 | 38.67514 | -29.16988 | 35787 ft | 476 kts | 226° |
| 2026-04-29 14:52 | 38.62766 | -29.22900 | 35792 ft | 476 kts | 226° |
| 2026-04-29 14:52 | 38.58013 | -29.28806 | 35793 ft | 476 kts | 226° |
| 2026-04-29 14:53 | 38.53258 | -29.34705 | 35793 ft | 476 kts | 226° |
| 2026-04-29 14:53 | 38.48543 | -29.40542 | 35794 ft | 475 kts | 226° |
| 2026-04-29 14:54 | 38.43792 | -29.46411 | 35796 ft | 475 kts | 226° |
| 2026-04-29 14:54 | 38.39042 | -29.52269 | 35800 ft | 474 kts | 226° |
| 2026-04-29 14:55 | 38.34292 | -29.58115 | 35800 ft | 474 kts | 226° |
| 2026-04-29 14:55 | 38.29551 | -29.63939 | 35801 ft | 473 kts | 227° |
| 2026-04-29 14:56 | 38.24802 | -29.69762 | 35801 ft | 473 kts | 227° |
| 2026-04-29 14:56 | 38.20061 | -29.75564 | 35802 ft | 473 kts | 227° |
| 2026-04-29 14:57 | 38.15352 | -29.81316 | 35806 ft | 472 kts | 227° |
| 2026-04-29 14:57 | 38.10614 | -29.87093 | 35808 ft | 472 kts | 227° |
| 2026-04-29 14:58 | 38.05867 | -29.92871 | 35811 ft | 471 kts | 227° |
| 2026-04-29 14:58 | 38.01130 | -29.98627 | 35800 ft | 471 kts | 227° |
| 2026-04-29 14:59 | 37.96243 | -30.04184 | 35817 ft | 473 kts | 225° |
| 2026-04-29 14:59 | 37.91263 | -30.09551 | 35803 ft | 472 kts | 225° |
| 2026-04-29 15:00 | 37.86253 | -30.14933 | 35804 ft | 472 kts | 225° |
| 2026-04-29 15:00 | 37.81260 | -30.20318 | 35811 ft | 472 kts | 225° |
| 2026-04-29 15:01 | 37.76272 | -30.25704 | 35813 ft | 471 kts | 225° |
| 2026-04-29 15:01 | 37.71285 | -30.31085 | 35820 ft | 471 kts | 226° |
| 2026-04-29 15:02 | 37.66305 | -30.36446 | 35821 ft | 470 kts | 226° |
| 2026-04-29 15:02 | 37.61347 | -30.41773 | 35821 ft | 470 kts | 226° |
| 2026-04-29 15:03 | 37.56362 | -30.47119 | 35821 ft | 471 kts | 226° |
| 2026-04-29 15:03 | 37.51369 | -30.52464 | 35824 ft | 471 kts | 226° |
| 2026-04-29 15:04 | 37.47215 | -30.56903 | 35827 ft | 471 kts | 226° |
| 2026-04-29 15:04 | 37.42218 | -30.62235 | 35828 ft | 471 kts | 227° |
| 2026-04-29 15:05 | 37.37211 | -30.67566 | 35829 ft | 471 kts | 227° |
| 2026-04-29 15:05 | 37.32211 | -30.72882 | 35846 ft | 471 kts | 227° |
| 2026-04-29 15:06 | 37.27201 | -30.78197 | 35842 ft | 470 kts | 228° |
| 2026-04-29 15:06 | 37.22205 | -30.83488 | 35835 ft | 470 kts | 228° |
| 2026-04-29 15:07 | 37.17236 | -30.88742 | 35834 ft | 469 kts | 229° |
| 2026-04-29 15:07 | 37.12246 | -30.94007 | 35833 ft | 468 kts | 229° |
| 2026-04-29 15:08 | 37.07263 | -30.99257 | 35836 ft | 467 kts | 229° |
| 2026-04-29 15:08 | 37.02290 | -31.04488 | 35839 ft | 467 kts | 229° |
| 2026-04-29 15:09 | 36.97323 | -31.09702 | 35842 ft | 466 kts | 230° |
| 2026-04-29 15:09 | 36.92352 | -31.14911 | 35844 ft | 465 kts | 230° |
| 2026-04-29 15:10 | 36.87391 | -31.20101 | 35851 ft | 465 kts | 230° |
| 2026-04-29 15:10 | 36.82436 | -31.25277 | 35851 ft | 464 kts | 230° |
| 2026-04-29 15:11 | 36.77478 | -31.30445 | 35849 ft | 464 kts | 231° |
| 2026-04-29 15:11 | 36.72557 | -31.35566 | 35853 ft | 463 kts | 231° |
| 2026-04-29 15:12 | 36.67605 | -31.40710 | 35851 ft | 463 kts | 231° |
| 2026-04-29 15:12 | 36.62659 | -31.45840 | 35851 ft | 462 kts | 231° |
| 2026-04-29 15:13 | 36.57716 | -31.50957 | 35874 ft | 462 kts | 231° |
| 2026-04-29 15:13 | 36.52777 | -31.56063 | 35865 ft | 462 kts | 231° |
| 2026-04-29 15:14 | 36.47832 | -31.61164 | 35865 ft | 461 kts | 232° |
| 2026-04-29 15:14 | 36.42895 | -31.66250 | 35871 ft | 461 kts | 232° |
| 2026-04-29 15:15 | 36.37949 | -31.71336 | 35875 ft | 461 kts | 232° |
| 2026-04-29 15:15 | 36.33010 | -31.76406 | 35874 ft | 461 kts | 232° |
| 2026-04-29 15:16 | 36.28076 | -31.81462 | 35881 ft | 460 kts | 232° |
| 2026-04-29 15:16 | 36.23167 | -31.86482 | 35883 ft | 460 kts | 232° |
| 2026-04-29 15:17 | 36.18197 | -31.91558 | 35886 ft | 460 kts | 232° |
| 2026-04-29 15:17 | 36.13260 | -31.96592 | 35887 ft | 460 kts | 232° |
| 2026-04-29 15:18 | 36.08359 | -32.01581 | 35899 ft | 459 kts | 232° |
| 2026-04-29 15:18 | 36.03418 | -32.06601 | 35891 ft | 459 kts | 232° |
| 2026-04-29 15:19 | 35.98487 | -32.11603 | 35892 ft | 459 kts | 232° |
| 2026-04-29 15:19 | 35.93557 | -32.16595 | 35894 ft | 458 kts | 232° |
| 2026-04-29 15:20 | 35.88630 | -32.21576 | 35894 ft | 457 kts | 232° |
| 2026-04-29 15:20 | 35.83705 | -32.26548 | 35903 ft | 457 kts | 232° |
| 2026-04-29 15:21 | 35.78781 | -32.31510 | 35912 ft | 457 kts | 232° |
| 2026-04-29 15:21 | 35.73865 | -32.36456 | 35914 ft | 456 kts | 232° |
| 2026-04-29 15:22 | 35.68974 | -32.41369 | 35919 ft | 456 kts | 232° |
| 2026-04-29 15:22 | 35.64057 | -32.46299 | 35914 ft | 456 kts | 232° |
| 2026-04-29 15:23 | 35.59135 | -32.51226 | 35915 ft | 456 kts | 232° |
| 2026-04-29 15:23 | 35.54211 | -32.56148 | 35921 ft | 456 kts | 232° |
| 2026-04-29 15:24 | 35.49280 | -32.61069 | 35937 ft | 456 kts | 232° |
| 2026-04-29 15:24 | 35.44350 | -32.65981 | 35935 ft | 456 kts | 231° |
| 2026-04-29 15:25 | 35.39421 | -32.70882 | 35933 ft | 457 kts | 231° |
| 2026-04-29 15:25 | 35.34488 | -32.75781 | 35933 ft | 457 kts | 231° |
| 2026-04-29 15:26 | 35.29547 | -32.80679 | 35936 ft | 457 kts | 231° |
| 2026-04-29 15:26 | 35.24609 | -32.85566 | 35939 ft | 457 kts | 231° |
| 2026-04-29 15:27 | 35.19696 | -32.90421 | 35940 ft | 457 kts | 231° |
| 2026-04-29 15:27 | 35.14748 | -32.95303 | 35941 ft | 457 kts | 231° |
| 2026-04-29 15:28 | 35.09796 | -33.00180 | 35945 ft | 457 kts | 231° |
| 2026-04-29 15:28 | 35.04840 | -33.05054 | 35960 ft | 458 kts | 231° |
| 2026-04-29 15:29 | 34.99871 | -33.09933 | 35960 ft | 458 kts | 231° |
| 2026-04-29 15:30 | 34.89936 | -33.19663 | 35967 ft | 458 kts | 230° |
| 2026-04-29 15:30 | 34.84961 | -33.24524 | 35966 ft | 458 kts | 230° |
| 2026-04-29 15:31 | 34.80017 | -33.29347 | 35970 ft | 458 kts | 230° |
| 2026-04-29 15:31 | 34.75037 | -33.34197 | 35967 ft | 458 kts | 230° |
| 2026-04-29 15:32 | 34.70049 | -33.39048 | 35970 ft | 458 kts | 230° |
| 2026-04-29 15:32 | 34.65061 | -33.43890 | 35974 ft | 458 kts | 230° |
| 2026-04-29 15:33 | 34.60080 | -33.48719 | 35979 ft | 458 kts | 230° |
| 2026-04-29 15:33 | 34.55098 | -33.53541 | 35981 ft | 458 kts | 230° |
| 2026-04-29 15:34 | 34.50112 | -33.58359 | 35982 ft | 458 kts | 230° |
| 2026-04-29 15:34 | 34.45157 | -33.63140 | 35988 ft | 458 kts | 230° |
| 2026-04-29 15:35 | 34.40170 | -33.67943 | 35985 ft | 458 kts | 230° |
| 2026-04-29 15:35 | 34.35148 | -33.72773 | 35983 ft | 458 kts | 229° |
| 2026-04-29 15:36 | 34.30182 | -33.77542 | 35987 ft | 458 kts | 229° |
| 2026-04-29 15:36 | 34.25188 | -33.82329 | 35987 ft | 458 kts | 229° |
| 2026-04-29 15:37 | 34.20192 | -33.87112 | 35985 ft | 458 kts | 229° |
| 2026-04-29 15:37 | 34.15192 | -33.91892 | 36002 ft | 458 kts | 229° |
| 2026-04-29 15:38 | 34.10191 | -33.96663 | 36000 ft | 458 kts | 229° |
| 2026-04-29 15:38 | 34.05189 | -34.01429 | 35994 ft | 458 kts | 229° |
| 2026-04-29 15:39 | 34.00189 | -34.06186 | 36001 ft | 458 kts | 229° |
| 2026-04-29 15:39 | 33.95185 | -34.10939 | 36001 ft | 458 kts | 228° |
| 2026-04-29 15:40 | 33.90182 | -34.15684 | 36000 ft | 458 kts | 228° |
| 2026-04-29 15:40 | 33.85182 | -34.20419 | 36008 ft | 457 kts | 228° |
| 2026-04-29 15:41 | 33.80207 | -34.25123 | 36007 ft | 457 kts | 228° |
| 2026-04-29 15:41 | 33.75204 | -34.29847 | 36011 ft | 457 kts | 228° |
| 2026-04-29 15:42 | 33.70193 | -34.34569 | 36007 ft | 457 kts | 228° |
| 2026-04-29 15:42 | 33.65184 | -34.39284 | 36014 ft | 457 kts | 228° |
| 2026-04-29 15:43 | 33.60172 | -34.43995 | 36021 ft | 457 kts | 227° |
| 2026-04-29 15:43 | 33.55161 | -34.48696 | 36021 ft | 457 kts | 227° |
| 2026-04-29 15:44 | 33.50147 | -34.53394 | 36018 ft | 457 kts | 227° |
| 2026-04-29 15:44 | 33.45166 | -34.58054 | 36021 ft | 457 kts | 227° |
| 2026-04-29 15:45 | 33.40155 | -34.62735 | 36018 ft | 457 kts | 227° |
| 2026-04-29 15:45 | 33.35149 | -34.67404 | 36028 ft | 456 kts | 227° |
| 2026-04-29 15:46 | 33.30142 | -34.72068 | 36026 ft | 456 kts | 227° |
| 2026-04-29 15:46 | 33.25136 | -34.76722 | 36027 ft | 456 kts | 227° |
| 2026-04-29 15:47 | 33.20133 | -34.81369 | 36032 ft | 455 kts | 227° |
| 2026-04-29 15:47 | 33.15131 | -34.86007 | 36033 ft | 455 kts | 227° |
| 2026-04-29 15:48 | 33.10125 | -34.90642 | 36031 ft | 455 kts | 227° |
| 2026-04-29 15:48 | 33.05125 | -34.95266 | 36034 ft | 455 kts | 226° |
| 2026-04-29 15:49 | 33.00135 | -34.99887 | 36034 ft | 453 kts | 228° |
| 2026-04-29 15:49 | 32.95467 | -35.04786 | 36037 ft | 449 kts | 231° |
| 2026-04-29 15:50 | 32.90842 | -35.09785 | 36037 ft | 449 kts | 231° |
| 2026-04-29 15:50 | 32.86212 | -35.14775 | 36038 ft | 449 kts | 231° |
| 2026-04-29 15:51 | 32.81574 | -35.19747 | 36041 ft | 449 kts | 230° |
| 2026-04-29 15:51 | 32.76929 | -35.24711 | 36040 ft | 449 kts | 230° |
| 2026-04-29 15:52 | 32.72282 | -35.29666 | 36040 ft | 449 kts | 230° |
| 2026-04-29 15:52 | 32.67634 | -35.34616 | 36044 ft | 449 kts | 230° |
| 2026-04-29 15:53 | 32.63766 | -35.38731 | 36044 ft | 449 kts | 230° |
| 2026-04-29 15:53 | 32.59113 | -35.43674 | 36043 ft | 449 kts | 230° |
| 2026-04-29 15:54 | 32.54461 | -35.48609 | 36038 ft | 449 kts | 230° |
| 2026-04-29 15:54 | 32.49811 | -35.53534 | 36044 ft | 449 kts | 230° |
| 2026-04-29 15:55 | 32.45156 | -35.58459 | 36045 ft | 448 kts | 230° |
| 2026-04-29 15:55 | 32.40499 | -35.63377 | 36058 ft | 449 kts | 230° |
| 2026-04-29 15:56 | 32.35838 | -35.68294 | 36049 ft | 449 kts | 230° |
| 2026-04-29 15:56 | 32.31173 | -35.73207 | 36046 ft | 449 kts | 230° |
| 2026-04-29 15:57 | 32.26541 | -35.78078 | 36047 ft | 449 kts | 230° |
| 2026-04-29 15:57 | 32.21845 | -35.83010 | 36051 ft | 448 kts | 230° |
| 2026-04-29 15:58 | 32.17209 | -35.87871 | 36035 ft | 448 kts | 230° |
| 2026-04-29 15:58 | 32.12540 | -35.92761 | 36044 ft | 448 kts | 229° |
| 2026-04-29 15:59 | 32.07875 | -35.97639 | 36041 ft | 448 kts | 229° |
| 2026-04-29 15:59 | 32.03205 | -36.02515 | 36046 ft | 448 kts | 229° |
| 2026-04-29 16:00 | 31.98538 | -36.07382 | 36049 ft | 448 kts | 229° |
| 2026-04-29 16:00 | 31.93864 | -36.12249 | 36041 ft | 448 kts | 229° |
| 2026-04-29 16:01 | 31.89189 | -36.17112 | 36046 ft | 449 kts | 229° |
| 2026-04-29 16:01 | 31.84534 | -36.21944 | 36055 ft | 449 kts | 229° |
| 2026-04-29 16:02 | 31.79843 | -36.26808 | 36052 ft | 450 kts | 229° |
| 2026-04-29 16:02 | 31.75141 | -36.31677 | 36051 ft | 450 kts | 229° |
| 2026-04-29 16:03 | 31.70432 | -36.36544 | 36053 ft | 451 kts | 229° |
| 2026-04-29 16:03 | 31.65723 | -36.41406 | 36051 ft | 451 kts | 229° |
| 2026-04-29 16:04 | 31.61012 | -36.46263 | 36066 ft | 450 kts | 229° |
| 2026-04-29 16:04 | 31.56301 | -36.51113 | 36048 ft | 450 kts | 229° |
| 2026-04-29 16:05 | 31.51629 | -36.55917 | 36043 ft | 450 kts | 229° |
| 2026-04-29 16:05 | 31.46926 | -36.60745 | 36058 ft | 449 kts | 228° |
| 2026-04-29 16:06 | 31.42224 | -36.65566 | 36049 ft | 449 kts | 228° |
| 2026-04-29 16:06 | 31.37525 | -36.70377 | 36057 ft | 448 kts | 228° |
| 2026-04-29 16:07 | 31.32828 | -36.75179 | 36056 ft | 448 kts | 228° |
| 2026-04-29 16:07 | 31.28134 | -36.79973 | 36056 ft | 448 kts | 228° |
| 2026-04-29 16:08 | 31.23443 | -36.84755 | 36053 ft | 447 kts | 228° |
| 2026-04-29 16:08 | 31.18781 | -36.89503 | 36055 ft | 447 kts | 228° |
| 2026-04-29 16:09 | 31.14060 | -36.94304 | 36055 ft | 447 kts | 228° |
| 2026-04-29 16:09 | 31.09372 | -36.99064 | 36056 ft | 447 kts | 227° |
| 2026-04-29 16:10 | 31.04708 | -37.03794 | 36057 ft | 447 kts | 227° |
| 2026-04-29 16:10 | 31.00016 | -37.08546 | 36052 ft | 446 kts | 227° |
| 2026-04-29 16:11 | 30.95327 | -37.13288 | 36056 ft | 446 kts | 227° |
| 2026-04-29 16:11 | 30.90662 | -37.18000 | 36053 ft | 446 kts | 227° |
| 2026-04-29 16:12 | 30.85970 | -37.22732 | 36061 ft | 446 kts | 227° |
| 2026-04-29 16:12 | 30.81284 | -37.27452 | 36059 ft | 446 kts | 227° |
| 2026-04-29 16:13 | 30.76594 | -37.32170 | 36061 ft | 445 kts | 227° |
| 2026-04-29 16:13 | 30.71902 | -37.36884 | 36058 ft | 445 kts | 227° |
| 2026-04-29 16:14 | 30.67214 | -37.41587 | 36063 ft | 445 kts | 227° |
| 2026-04-29 16:14 | 30.62529 | -37.46282 | 36061 ft | 445 kts | 227° |
| 2026-04-29 16:15 | 30.57838 | -37.50975 | 36061 ft | 445 kts | 227° |
| 2026-04-29 16:15 | 30.53155 | -37.55655 | 36060 ft | 444 kts | 227° |
| 2026-04-29 16:16 | 30.48468 | -37.60332 | 36061 ft | 444 kts | 227° |
| 2026-04-29 16:16 | 30.43818 | -37.64966 | 36061 ft | 443 kts | 227° |
| 2026-04-29 16:17 | 30.39137 | -37.69625 | 36061 ft | 443 kts | 227° |
| 2026-04-29 16:17 | 30.34464 | -37.74270 | 36059 ft | 442 kts | 227° |
| 2026-04-29 16:18 | 30.29794 | -37.78906 | 36062 ft | 442 kts | 227° |
| 2026-04-29 16:18 | 30.25128 | -37.83532 | 36065 ft | 442 kts | 227° |
| 2026-04-29 16:19 | 30.20464 | -37.88151 | 36059 ft | 441 kts | 227° |
| 2026-04-29 16:19 | 30.15800 | -37.92762 | 36065 ft | 441 kts | 227° |
| 2026-04-29 16:20 | 30.11140 | -37.97365 | 36063 ft | 441 kts | 227° |
| 2026-04-29 16:20 | 30.06483 | -38.01958 | 36061 ft | 440 kts | 227° |
| 2026-04-29 16:21 | 30.01822 | -38.06550 | 36058 ft | 440 kts | 227° |
| 2026-04-29 16:21 | 29.97188 | -38.11109 | 36058 ft | 440 kts | 227° |
| 2026-04-29 16:22 | 29.92528 | -38.15688 | 36064 ft | 440 kts | 226° |
| 2026-04-29 16:22 | 29.87868 | -38.20260 | 36068 ft | 439 kts | 227° |
| 2026-04-29 16:23 | 29.83213 | -38.24822 | 36061 ft | 439 kts | 226° |
| 2026-04-29 16:23 | 29.78559 | -38.29377 | 36070 ft | 439 kts | 226° |
| 2026-04-29 16:24 | 29.73907 | -38.33926 | 36069 ft | 438 kts | 226° |
| 2026-04-29 16:24 | 29.69286 | -38.38437 | 36064 ft | 438 kts | 226° |
| 2026-04-29 16:25 | 29.64639 | -38.42968 | 36061 ft | 438 kts | 226° |
| 2026-04-29 16:25 | 29.59986 | -38.47500 | 36061 ft | 438 kts | 227° |
| 2026-04-29 16:26 | 29.55342 | -38.52017 | 36059 ft | 437 kts | 227° |
| 2026-04-29 16:26 | 29.50699 | -38.56528 | 36062 ft | 437 kts | 227° |
| 2026-04-29 16:27 | 29.46052 | -38.61036 | 36065 ft | 437 kts | 227° |
| 2026-04-29 16:27 | 29.41403 | -38.65542 | 36061 ft | 437 kts | 227° |
| 2026-04-29 16:28 | 29.36754 | -38.70041 | 36062 ft | 438 kts | 227° |
| 2026-04-29 16:28 | 29.32097 | -38.74544 | 36062 ft | 438 kts | 227° |
| 2026-04-29 16:29 | 29.27463 | -38.79018 | 36063 ft | 439 kts | 227° |
| 2026-04-29 16:29 | 29.22789 | -38.83525 | 36062 ft | 439 kts | 227° |
| 2026-04-29 16:30 | 29.18113 | -38.88028 | 36061 ft | 439 kts | 227° |
| 2026-04-29 16:30 | 29.13433 | -38.92529 | 36058 ft | 439 kts | 227° |
| 2026-04-29 16:31 | 29.08750 | -38.97028 | 36057 ft | 439 kts | 227° |
| 2026-04-29 16:31 | 29.04066 | -39.01523 | 36060 ft | 439 kts | 227° |
| 2026-04-29 16:32 | 28.99385 | -39.06009 | 36056 ft | 439 kts | 227° |
| 2026-04-29 16:32 | 28.94705 | -39.10489 | 36055 ft | 439 kts | 227° |
| 2026-04-29 16:33 | 28.87684 | -39.17199 | 36054 ft | 439 kts | 227° |
| 2026-04-29 16:33 | 28.83034 | -39.21636 | 36060 ft | 438 kts | 227° |
| 2026-04-29 16:34 | 28.78358 | -39.26093 | 36055 ft | 438 kts | 227° |
| 2026-04-29 16:34 | 28.73673 | -39.30553 | 36055 ft | 438 kts | 227° |
| 2026-04-29 16:35 | 28.68988 | -39.35008 | 36055 ft | 438 kts | 227° |
| 2026-04-29 16:35 | 28.64310 | -39.39451 | 36057 ft | 438 kts | 227° |
| 2026-04-29 16:36 | 28.59632 | -39.43887 | 36055 ft | 437 kts | 227° |
| 2026-04-29 16:36 | 28.54986 | -39.48290 | 36053 ft | 437 kts | 227° |
| 2026-04-29 16:37 | 28.50311 | -39.52713 | 36064 ft | 437 kts | 227° |
| 2026-04-29 16:37 | 28.46428 | -39.56384 | 36058 ft | 436 kts | 227° |
| 2026-04-29 16:38 | 28.40970 | -39.61537 | 36050 ft | 436 kts | 227° |
| 2026-04-29 16:38 | 28.36302 | -39.65938 | 36050 ft | 435 kts | 227° |
| 2026-04-29 16:39 | 28.31644 | -39.70325 | 36051 ft | 435 kts | 227° |
| 2026-04-29 16:39 | 28.26988 | -39.74705 | 36054 ft | 434 kts | 227° |
| 2026-04-29 16:40 | 28.22341 | -39.79073 | 36045 ft | 434 kts | 227° |
| 2026-04-29 16:40 | 28.17689 | -39.83439 | 36049 ft | 433 kts | 227° |
| 2026-04-29 16:41 | 28.13078 | -39.87762 | 36050 ft | 433 kts | 227° |
| 2026-04-29 16:41 | 28.08438 | -39.92108 | 36047 ft | 433 kts | 227° |
| 2026-04-29 16:42 | 28.03794 | -39.96453 | 36050 ft | 433 kts | 227° |
| 2026-04-29 16:42 | 27.99304 | -40.00929 | 36055 ft | 426 kts | 233° |
| 2026-04-29 16:43 | 27.96091 | -40.05099 | 36052 ft | 422 kts | 237° |
| 2026-04-29 16:43 | 27.92292 | -40.10159 | 36049 ft | 422 kts | 237° |
| 2026-04-29 16:44 | 27.88477 | -40.15211 | 36050 ft | 423 kts | 237° |
| 2026-04-29 16:44 | 27.84648 | -40.20262 | 36051 ft | 423 kts | 237° |
| 2026-04-29 16:45 | 27.80810 | -40.25314 | 36049 ft | 423 kts | 237° |
| 2026-04-29 16:45 | 27.76973 | -40.30360 | 36047 ft | 424 kts | 237° |
| 2026-04-29 16:46 | 27.73132 | -40.35404 | 36046 ft | 424 kts | 237° |
| 2026-04-29 16:46 | 27.69285 | -40.40451 | 36049 ft | 424 kts | 237° |
| 2026-04-29 16:47 | 27.65440 | -40.45489 | 36046 ft | 423 kts | 237° |
| 2026-04-29 16:47 | 27.61595 | -40.50522 | 36046 ft | 423 kts | 237° |
| 2026-04-29 16:48 | 27.57749 | -40.55550 | 36047 ft | 423 kts | 237° |
| 2026-04-29 16:48 | 27.53932 | -40.60534 | 36044 ft | 423 kts | 237° |
| 2026-04-29 16:49 | 27.50088 | -40.65547 | 36040 ft | 422 kts | 237° |
| 2026-04-29 16:49 | 27.46247 | -40.70551 | 36047 ft | 422 kts | 237° |
| 2026-04-29 16:50 | 27.42406 | -40.75549 | 36043 ft | 422 kts | 237° |
| 2026-04-29 16:50 | 27.38563 | -40.80544 | 36043 ft | 422 kts | 237° |
| 2026-04-29 16:51 | 27.34723 | -40.85530 | 36042 ft | 422 kts | 237° |
| 2026-04-29 16:51 | 27.30879 | -40.90516 | 36048 ft | 422 kts | 237° |
| 2026-04-29 16:52 | 27.27013 | -40.95532 | 36067 ft | 432 kts | 233° |
| 2026-04-29 16:52 | 27.23020 | -41.00701 | 36049 ft | 440 kts | 233° |
| 2026-04-29 16:53 | 27.19004 | -41.05883 | 36044 ft | 439 kts | 233° |
| 2026-04-29 16:53 | 27.15000 | -41.11047 | 36040 ft | 438 kts | 233° |
| 2026-04-29 16:54 | 27.11035 | -41.16155 | 36042 ft | 435 kts | 234° |
| 2026-04-29 16:54 | 27.07060 | -41.21273 | 36042 ft | 433 kts | 234° |
| 2026-04-29 16:55 | 27.03108 | -41.26355 | 36041 ft | 432 kts | 234° |
| 2026-04-29 16:55 | 26.99168 | -41.31416 | 36044 ft | 430 kts | 234° |
| 2026-04-29 16:56 | 26.95237 | -41.36461 | 36044 ft | 429 kts | 234° |
| 2026-04-29 16:56 | 26.91319 | -41.41482 | 36041 ft | 428 kts | 234° |
| 2026-04-29 16:57 | 26.87400 | -41.46500 | 36042 ft | 427 kts | 234° |
| 2026-04-29 16:57 | 26.83487 | -41.51504 | 36037 ft | 427 kts | 234° |
| 2026-04-29 16:58 | 26.79599 | -41.56470 | 36037 ft | 426 kts | 234° |
| 2026-04-29 16:58 | 26.75689 | -41.61459 | 36037 ft | 426 kts | 234° |
| 2026-04-29 16:59 | 26.71781 | -41.66439 | 36040 ft | 426 kts | 234° |
| 2026-04-29 16:59 | 26.67871 | -41.71416 | 36037 ft | 425 kts | 235° |
| 2026-04-29 17:00 | 26.63970 | -41.76375 | 36034 ft | 424 kts | 235° |
| 2026-04-29 17:00 | 26.60071 | -41.81328 | 36030 ft | 423 kts | 235° |
| 2026-04-29 17:01 | 26.56185 | -41.86256 | 36034 ft | 422 kts | 235° |
| 2026-04-29 17:01 | 26.52315 | -41.91160 | 36039 ft | 420 kts | 235° |
| 2026-04-29 17:02 | 26.48476 | -41.96019 | 36036 ft | 419 kts | 235° |
| 2026-04-29 17:02 | 26.44624 | -42.00891 | 36033 ft | 418 kts | 235° |
| 2026-04-29 17:03 | 26.40781 | -42.05745 | 36030 ft | 417 kts | 235° |
| 2026-04-29 17:03 | 26.36939 | -42.10592 | 36031 ft | 416 kts | 235° |
| 2026-04-29 17:04 | 26.33113 | -42.15415 | 36033 ft | 415 kts | 235° |
| 2026-04-29 17:04 | 26.29289 | -42.20229 | 36031 ft | 414 kts | 235° |
| 2026-04-29 17:05 | 26.25471 | -42.25030 | 36031 ft | 413 kts | 235° |
| 2026-04-29 17:05 | 26.21683 | -42.29789 | 36030 ft | 413 kts | 235° |
| 2026-04-29 17:06 | 26.17874 | -42.34569 | 36030 ft | 413 kts | 235° |
| 2026-04-29 17:06 | 26.14056 | -42.39355 | 36027 ft | 413 kts | 235° |
| 2026-04-29 17:07 | 26.10244 | -42.44130 | 36031 ft | 413 kts | 235° |
| 2026-04-29 17:07 | 26.06419 | -42.48914 | 36025 ft | 413 kts | 235° |
| 2026-04-29 17:08 | 26.02595 | -42.53693 | 36023 ft | 414 kts | 235° |
| 2026-04-29 17:08 | 25.98763 | -42.58476 | 36015 ft | 414 kts | 235° |
| 2026-04-29 17:09 | 25.94956 | -42.63224 | 36031 ft | 414 kts | 235° |
| 2026-04-29 17:09 | 25.91116 | -42.68006 | 36025 ft | 415 kts | 235° |
| 2026-04-29 17:10 | 25.87274 | -42.72786 | 36024 ft | 415 kts | 235° |
| 2026-04-29 17:10 | 25.83428 | -42.77567 | 36027 ft | 415 kts | 235° |
| 2026-04-29 17:11 | 25.79586 | -42.82337 | 36026 ft | 414 kts | 235° |
| 2026-04-29 17:11 | 25.75738 | -42.87109 | 36027 ft | 414 kts | 235° |
| 2026-04-29 17:12 | 25.71891 | -42.91877 | 36026 ft | 414 kts | 235° |
| 2026-04-29 17:12 | 25.68695 | -42.95833 | 36024 ft | 415 kts | 235° |
| 2026-04-29 17:13 | 25.64215 | -43.01373 | 36026 ft | 415 kts | 235° |
| 2026-04-29 17:13 | 25.60360 | -43.06134 | 36027 ft | 415 kts | 235° |
| 2026-04-29 17:14 | 25.56502 | -43.10895 | 36025 ft | 415 kts | 235° |
| 2026-04-29 17:14 | 25.52641 | -43.15655 | 36024 ft | 416 kts | 235° |
| 2026-04-29 17:15 | 25.48776 | -43.20414 | 36023 ft | 416 kts | 234° |
| 2026-04-29 17:15 | 25.44902 | -43.25179 | 36023 ft | 417 kts | 234° |
| 2026-04-29 17:16 | 25.41025 | -43.29942 | 36027 ft | 417 kts | 234° |
| 2026-04-29 17:16 | 25.37134 | -43.34718 | 36018 ft | 418 kts | 234° |
| 2026-04-29 17:17 | 25.33261 | -43.39467 | 36018 ft | 418 kts | 234° |
| 2026-04-29 17:17 | 25.29363 | -43.44243 | 36022 ft | 419 kts | 234° |
| 2026-04-29 17:18 | 25.25456 | -43.49022 | 36022 ft | 419 kts | 234° |
| 2026-04-29 17:18 | 25.21548 | -43.53800 | 36023 ft | 419 kts | 234° |
| 2026-04-29 17:19 | 25.17630 | -43.58584 | 36022 ft | 420 kts | 234° |
| 2026-04-29 17:19 | 25.13702 | -43.63375 | 36017 ft | 420 kts | 234° |
| 2026-04-29 17:20 | 25.09780 | -43.68154 | 36013 ft | 420 kts | 234° |
| 2026-04-29 17:20 | 25.05876 | -43.72907 | 36017 ft | 421 kts | 234° |
| 2026-04-29 17:21 | 25.01917 | -43.77722 | 36013 ft | 421 kts | 234° |
| 2026-04-29 17:21 | 24.97980 | -43.82505 | 36027 ft | 421 kts | 234° |
| 2026-04-29 17:22 | 24.94064 | -43.87256 | 36026 ft | 421 kts | 234° |
| 2026-04-29 17:22 | 24.90125 | -43.92032 | 36007 ft | 422 kts | 234° |
| 2026-04-29 17:23 | 24.86176 | -43.96815 | 36009 ft | 422 kts | 234° |
| 2026-04-29 17:23 | 24.82222 | -44.01598 | 36016 ft | 422 kts | 234° |
| 2026-04-29 17:24 | 24.78269 | -44.06376 | 36013 ft | 422 kts | 234° |
| 2026-04-29 17:24 | 24.74342 | -44.11118 | 36015 ft | 422 kts | 234° |
| 2026-04-29 17:25 | 24.70388 | -44.15886 | 36015 ft | 422 kts | 234° |
| 2026-04-29 17:25 | 24.66432 | -44.20654 | 36016 ft | 422 kts | 234° |
| 2026-04-29 17:26 | 24.62473 | -44.25419 | 36017 ft | 422 kts | 234° |
| 2026-04-29 17:26 | 24.58515 | -44.30178 | 36015 ft | 422 kts | 234° |
| 2026-04-29 17:27 | 24.54553 | -44.34938 | 36015 ft | 422 kts | 234° |
| 2026-04-29 17:27 | 24.50587 | -44.39697 | 36016 ft | 422 kts | 234° |
| 2026-04-29 17:28 | 24.46626 | -44.44447 | 36011 ft | 422 kts | 233° |
| 2026-04-29 17:28 | 24.42654 | -44.49204 | 36013 ft | 422 kts | 233° |
| 2026-04-29 17:29 | 24.38710 | -44.53923 | 36015 ft | 422 kts | 233° |
| 2026-04-29 17:29 | 24.35379 | -44.57904 | 36015 ft | 422 kts | 233° |
| 2026-04-29 17:30 | 24.30759 | -44.63422 | 36012 ft | 423 kts | 233° |
| 2026-04-29 17:30 | 24.26779 | -44.68170 | 36011 ft | 423 kts | 233° |
| 2026-04-29 17:31 | 24.22800 | -44.72912 | 36012 ft | 423 kts | 233° |
| 2026-04-29 17:31 | 24.18816 | -44.77655 | 36010 ft | 423 kts | 233° |
| 2026-04-29 17:32 | 24.14834 | -44.82392 | 36009 ft | 423 kts | 233° |
| 2026-04-29 17:32 | 24.10878 | -44.87093 | 36013 ft | 423 kts | 233° |
| 2026-04-29 17:33 | 24.06892 | -44.91826 | 36004 ft | 423 kts | 233° |
| 2026-04-29 17:33 | 24.02905 | -44.96554 | 36012 ft | 423 kts | 233° |
| 2026-04-29 17:34 | 23.99301 | -45.00227 | 36010 ft | 429 kts | 226° |
| 2026-04-29 17:34 | 23.94382 | -45.04009 | 36014 ft | 435 kts | 220° |
| 2026-04-29 17:35 | 23.86713 | -45.09321 | 36010 ft | 435 kts | 220° |
| 2026-04-29 17:36 | 23.81607 | -45.12867 | 36008 ft | 435 kts | 220° |
| 2026-04-29 17:36 | 23.76511 | -45.16419 | 36006 ft | 434 kts | 220° |
| 2026-04-29 17:37 | 23.71418 | -45.19973 | 36007 ft | 434 kts | 220° |
| 2026-04-29 17:37 | 23.66326 | -45.23522 | 36009 ft | 434 kts | 220° |
| 2026-04-29 17:38 | 23.61240 | -45.27065 | 36009 ft | 433 kts | 220° |
| 2026-04-29 17:38 | 23.56155 | -45.30603 | 36011 ft | 433 kts | 220° |
| 2026-04-29 17:39 | 23.51105 | -45.34112 | 36009 ft | 433 kts | 220° |
| 2026-04-29 17:39 | 23.46022 | -45.37643 | 36002 ft | 433 kts | 219° |
| 2026-04-29 17:40 | 23.40936 | -45.41171 | 36009 ft | 433 kts | 219° |
| 2026-04-29 17:40 | 23.35856 | -45.44692 | 36009 ft | 433 kts | 219° |
| 2026-04-29 17:41 | 23.30778 | -45.48209 | 36012 ft | 433 kts | 219° |
| 2026-04-29 17:41 | 23.25696 | -45.51725 | 36011 ft | 433 kts | 219° |
| 2026-04-29 17:42 | 23.20616 | -45.55237 | 36007 ft | 432 kts | 219° |
| 2026-04-29 17:42 | 23.15538 | -45.58744 | 36012 ft | 432 kts | 219° |
| 2026-04-29 17:43 | 23.10462 | -45.62247 | 36010 ft | 432 kts | 219° |
| 2026-04-29 17:43 | 23.05381 | -45.65749 | 36008 ft | 433 kts | 219° |
| 2026-04-29 17:44 | 23.00293 | -45.69253 | 36011 ft | 433 kts | 219° |
| 2026-04-29 17:44 | 22.95208 | -45.72752 | 36012 ft | 433 kts | 219° |
| 2026-04-29 17:45 | 22.90153 | -45.76228 | 36010 ft | 433 kts | 219° |
| 2026-04-29 17:45 | 22.85059 | -45.79727 | 36011 ft | 433 kts | 218° |
| 2026-04-29 17:46 | 22.79965 | -45.83223 | 36009 ft | 434 kts | 218° |
| 2026-04-29 17:46 | 22.74865 | -45.86720 | 36012 ft | 434 kts | 218° |
| 2026-04-29 17:47 | 22.69765 | -45.90213 | 36010 ft | 434 kts | 218° |
| 2026-04-29 17:47 | 22.64656 | -45.93710 | 36014 ft | 434 kts | 218° |
| 2026-04-29 17:48 | 22.59549 | -45.97202 | 36011 ft | 434 kts | 218° |
| 2026-04-29 17:48 | 22.54477 | -46.00667 | 36019 ft | 434 kts | 218° |
| 2026-04-29 17:49 | 22.49363 | -46.04158 | 36020 ft | 434 kts | 218° |
| 2026-04-29 17:49 | 22.44246 | -46.07648 | 36013 ft | 435 kts | 218° |
| 2026-04-29 17:50 | 22.39128 | -46.11135 | 36009 ft | 435 kts | 218° |
| 2026-04-29 17:50 | 22.34002 | -46.14625 | 36016 ft | 435 kts | 218° |
| 2026-04-29 17:51 | 22.28878 | -46.18110 | 36010 ft | 435 kts | 218° |
| 2026-04-29 17:51 | 22.23781 | -46.21574 | 36011 ft | 435 kts | 218° |
| 2026-04-29 17:52 | 22.18654 | -46.25055 | 36014 ft | 436 kts | 218° |
| 2026-04-29 17:52 | 22.13522 | -46.28537 | 36008 ft | 436 kts | 218° |
| 2026-04-29 17:53 | 22.08393 | -46.32013 | 36012 ft | 436 kts | 218° |
| 2026-04-29 17:53 | 22.03253 | -46.35494 | 36013 ft | 436 kts | 218° |
| 2026-04-29 17:54 | 21.98116 | -46.38970 | 36012 ft | 436 kts | 218° |
| 2026-04-29 17:54 | 21.93004 | -46.42426 | 36014 ft | 436 kts | 218° |
| 2026-04-29 17:55 | 21.87867 | -46.45896 | 36014 ft | 436 kts | 217° |
| 2026-04-29 17:55 | 21.82720 | -46.49369 | 36012 ft | 436 kts | 218° |
| 2026-04-29 17:56 | 21.77569 | -46.52843 | 36012 ft | 437 kts | 217° |
| 2026-04-29 17:56 | 21.72416 | -46.56314 | 36013 ft | 437 kts | 217° |
| 2026-04-29 17:57 | 21.67258 | -46.59787 | 36010 ft | 437 kts | 217° |
| 2026-04-29 17:57 | 21.62103 | -46.63254 | 36014 ft | 437 kts | 217° |
| 2026-04-29 17:58 | 21.56946 | -46.66719 | 36010 ft | 437 kts | 217° |
| 2026-04-29 17:58 | 21.51786 | -46.70184 | 36013 ft | 438 kts | 217° |
| 2026-04-29 17:59 | 21.46655 | -46.73626 | 36013 ft | 438 kts | 217° |
| 2026-04-29 17:59 | 21.41476 | -46.77097 | 36012 ft | 438 kts | 217° |
| 2026-04-29 18:00 | 21.36311 | -46.80557 | 36013 ft | 438 kts | 217° |
| 2026-04-29 18:00 | 21.31136 | -46.84020 | 36007 ft | 438 kts | 217° |
| 2026-04-29 18:01 | 21.25958 | -46.87481 | 36009 ft | 438 kts | 217° |
| 2026-04-29 18:01 | 21.20818 | -46.90915 | 36023 ft | 438 kts | 217° |
| 2026-04-29 18:02 | 21.15635 | -46.94375 | 36017 ft | 439 kts | 217° |
| 2026-04-29 18:02 | 21.10449 | -46.97834 | 36012 ft | 439 kts | 217° |
| 2026-04-29 18:03 | 21.05264 | -47.01289 | 36007 ft | 439 kts | 217° |
| 2026-04-29 18:03 | 21.00074 | -47.04745 | 36008 ft | 439 kts | 217° |
| 2026-04-29 18:04 | 20.94874 | -47.08204 | 36009 ft | 440 kts | 217° |
| 2026-04-29 18:04 | 20.89677 | -47.11659 | 36017 ft | 440 kts | 217° |
| 2026-04-29 18:05 | 20.84475 | -47.15113 | 36019 ft | 440 kts | 217° |
| 2026-04-29 18:05 | 20.79308 | -47.18543 | 36011 ft | 440 kts | 217° |
| 2026-04-29 18:06 | 20.74096 | -47.21998 | 36013 ft | 440 kts | 217° |
| 2026-04-29 18:06 | 20.68889 | -47.25448 | 36011 ft | 441 kts | 217° |
| 2026-04-29 18:07 | 20.63678 | -47.28898 | 36012 ft | 441 kts | 217° |
| 2026-04-29 18:07 | 20.58464 | -47.32347 | 36013 ft | 441 kts | 217° |
| 2026-04-29 18:08 | 20.53245 | -47.35796 | 36010 ft | 441 kts | 217° |
| 2026-04-29 18:08 | 20.48061 | -47.39219 | 36011 ft | 441 kts | 217° |
| 2026-04-29 18:09 | 20.42835 | -47.42667 | 36013 ft | 441 kts | 217° |
| 2026-04-29 18:09 | 20.37611 | -47.46112 | 36012 ft | 442 kts | 217° |
| 2026-04-29 18:10 | 20.32385 | -47.49555 | 36011 ft | 442 kts | 216° |
| 2026-04-29 18:10 | 20.27153 | -47.52998 | 36015 ft | 442 kts | 216° |
| 2026-04-29 18:11 | 20.21916 | -47.56443 | 36011 ft | 442 kts | 216° |
| 2026-04-29 18:11 | 20.16675 | -47.59888 | 36013 ft | 443 kts | 216° |
| 2026-04-29 18:12 | 20.11425 | -47.63335 | 36013 ft | 443 kts | 216° |
| 2026-04-29 18:12 | 20.06215 | -47.66753 | 36010 ft | 443 kts | 216° |
| 2026-04-29 18:13 | 20.00962 | -47.70198 | 36013 ft | 443 kts | 216° |
| 2026-04-29 18:13 | 19.95704 | -47.73642 | 36014 ft | 444 kts | 216° |
| 2026-04-29 18:14 | 19.90442 | -47.77086 | 36010 ft | 444 kts | 216° |
| 2026-04-29 18:14 | 19.85178 | -47.80529 | 36007 ft | 444 kts | 216° |
| 2026-04-29 18:15 | 19.79905 | -47.83976 | 36013 ft | 444 kts | 216° |
| 2026-04-29 18:15 | 19.74667 | -47.87396 | 36014 ft | 445 kts | 216° |
| 2026-04-29 18:16 | 19.69392 | -47.90838 | 36009 ft | 445 kts | 216° |
| 2026-04-29 18:16 | 19.64119 | -47.94276 | 36011 ft | 445 kts | 216° |
| 2026-04-29 18:17 | 19.58841 | -47.97715 | 36010 ft | 445 kts | 216° |
| 2026-04-29 18:17 | 19.53560 | -48.01153 | 36010 ft | 445 kts | 216° |
| 2026-04-29 18:18 | 19.48277 | -48.04590 | 36008 ft | 445 kts | 216° |
| 2026-04-29 18:18 | 19.42994 | -48.08023 | 36007 ft | 446 kts | 216° |
| 2026-04-29 18:19 | 19.37711 | -48.11454 | 36008 ft | 446 kts | 216° |
| 2026-04-29 18:19 | 19.35045 | -48.13186 | 36120 ft | 450 kts | 216° |
| 2026-04-29 18:19 | 19.32377 | -48.14918 | 36467 ft | 449 kts | 216° |
| 2026-04-29 18:19 | 19.29721 | -48.16640 | 36895 ft | 446 kts | 216° |
| 2026-04-29 18:20 | 19.27079 | -48.18350 | 37328 ft | 443 kts | 216° |
| 2026-04-29 18:20 | 19.24457 | -48.20049 | 37733 ft | 441 kts | 216° |
| 2026-04-29 18:20 | 19.21844 | -48.21741 | 37946 ft | 442 kts | 216° |
| 2026-04-29 18:21 | 19.16572 | -48.25157 | 37995 ft | 444 kts | 216° |
| 2026-04-29 18:21 | 19.11326 | -48.28551 | 38000 ft | 440 kts | 216° |
| 2026-04-29 18:22 | 19.06993 | -48.31352 | 38004 ft | 438 kts | 216° |
| 2026-04-29 18:22 | 19.01798 | -48.34708 | 38005 ft | 437 kts | 216° |
| 2026-04-29 18:23 | 18.95765 | -48.38605 | 38009 ft | 437 kts | 216° |
| 2026-04-29 18:23 | 18.91401 | -48.41421 | 38010 ft | 439 kts | 216° |
| 2026-04-29 18:24 | 18.86214 | -48.44766 | 38009 ft | 441 kts | 216° |
| 2026-04-29 18:24 | 18.80972 | -48.48143 | 38004 ft | 442 kts | 216° |
| 2026-04-29 18:25 | 18.75705 | -48.51533 | 38006 ft | 444 kts | 216° |
| 2026-04-29 18:25 | 18.70427 | -48.54928 | 38004 ft | 444 kts | 216° |
| 2026-04-29 18:26 | 18.65142 | -48.58323 | 38004 ft | 444 kts | 216° |
| 2026-04-29 18:26 | 18.59855 | -48.61719 | 38006 ft | 445 kts | 216° |
| 2026-04-29 18:27 | 18.54572 | -48.65110 | 38004 ft | 445 kts | 216° |
| 2026-04-29 18:27 | 18.49278 | -48.68505 | 37994 ft | 443 kts | 216° |
| 2026-04-29 18:28 | 18.44007 | -48.71883 | 37999 ft | 444 kts | 216° |
| 2026-04-29 18:28 | 18.38731 | -48.75265 | 37995 ft | 445 kts | 216° |
| 2026-04-29 18:29 | 18.33475 | -48.78630 | 38000 ft | 445 kts | 216° |
| 2026-04-29 18:29 | 18.28166 | -48.82025 | 38002 ft | 446 kts | 216° |
| 2026-04-29 18:30 | 18.22858 | -48.85418 | 37996 ft | 447 kts | 216° |
| 2026-04-29 18:30 | 18.17532 | -48.88819 | 37999 ft | 447 kts | 216° |
| 2026-04-29 18:31 | 18.12208 | -48.92217 | 38012 ft | 448 kts | 216° |
| 2026-04-29 18:31 | 18.06881 | -48.95615 | 37992 ft | 448 kts | 216° |
| 2026-04-29 18:32 | 18.01540 | -48.99018 | 37992 ft | 448 kts | 216° |
| 2026-04-29 18:32 | 17.93164 | -49.03515 | 37983 ft | 452 kts | 210° |
| 2026-04-29 18:33 | 17.87517 | -49.06331 | 38003 ft | 452 kts | 210° |
| 2026-04-29 18:33 | 17.81836 | -49.09181 | 38001 ft | 452 kts | 210° |
| 2026-04-29 18:34 | 17.77082 | -49.11577 | 37979 ft | 452 kts | 210° |
| 2026-04-29 18:34 | 17.70485 | -49.14905 | 37995 ft | 453 kts | 210° |
| 2026-04-29 18:35 | 17.64809 | -49.17767 | 37993 ft | 453 kts | 210° |
| 2026-04-29 18:35 | 17.59121 | -49.20632 | 37992 ft | 453 kts | 210° |
| 2026-04-29 18:36 | 17.53429 | -49.23498 | 37992 ft | 454 kts | 210° |
| 2026-04-29 18:36 | 17.47743 | -49.26358 | 37996 ft | 454 kts | 210° |
| 2026-04-29 18:37 | 17.42047 | -49.29221 | 37995 ft | 454 kts | 210° |
| 2026-04-29 18:37 | 17.36338 | -49.32088 | 37991 ft | 455 kts | 210° |
| 2026-04-29 18:38 | 17.30626 | -49.34955 | 37992 ft | 455 kts | 210° |
| 2026-04-29 18:38 | 17.24915 | -49.37820 | 37986 ft | 455 kts | 210° |
| 2026-04-29 18:39 | 17.19193 | -49.40688 | 37990 ft | 456 kts | 210° |
| 2026-04-29 18:39 | 17.13470 | -49.43555 | 37990 ft | 456 kts | 210° |
| 2026-04-29 18:40 | 17.07746 | -49.46420 | 37988 ft | 456 kts | 210° |
| 2026-04-29 18:40 | 17.02011 | -49.49289 | 37988 ft | 457 kts | 210° |
| 2026-04-29 18:41 | 16.90534 | -49.55024 | 37986 ft | 457 kts | 210° |
| 2026-04-29 18:42 | 16.84795 | -49.57889 | 37985 ft | 458 kts | 210° |
| 2026-04-29 18:42 | 16.79048 | -49.60755 | 37980 ft | 458 kts | 210° |
| 2026-04-29 18:43 | 16.73329 | -49.63607 | 37983 ft | 458 kts | 210° |
| 2026-04-29 18:43 | 16.67577 | -49.66472 | 37975 ft | 458 kts | 210° |
| 2026-04-29 18:44 | 16.61823 | -49.69337 | 37985 ft | 459 kts | 210° |
| 2026-04-29 18:44 | 16.56056 | -49.72207 | 37982 ft | 459 kts | 210° |
| 2026-04-29 18:45 | 16.50289 | -49.75074 | 37974 ft | 459 kts | 210° |
| 2026-04-29 18:45 | 16.44517 | -49.77942 | 37982 ft | 460 kts | 210° |
| 2026-04-29 18:46 | 16.38734 | -49.80813 | 37982 ft | 460 kts | 210° |
| 2026-04-29 18:46 | 16.32956 | -49.83681 | 37978 ft | 460 kts | 210° |
| 2026-04-29 18:47 | 16.27213 | -49.86528 | 37978 ft | 460 kts | 210° |
| 2026-04-29 18:47 | 16.21426 | -49.89396 | 37979 ft | 461 kts | 210° |
| 2026-04-29 18:48 | 16.15637 | -49.92264 | 37976 ft | 461 kts | 210° |
| 2026-04-29 18:48 | 16.09842 | -49.95132 | 37974 ft | 461 kts | 210° |
| 2026-04-29 18:49 | 16.04045 | -49.98000 | 37977 ft | 461 kts | 210° |
| 2026-04-29 18:49 | 15.98240 | -50.00858 | 37974 ft | 462 kts | 209° |
| 2026-04-29 18:50 | 15.92387 | -50.03630 | 37973 ft | 462 kts | 208° |
| 2026-04-29 18:50 | 15.86551 | -50.06360 | 37974 ft | 463 kts | 208° |
| 2026-04-29 18:51 | 15.80684 | -50.09113 | 37974 ft | 463 kts | 208° |
| 2026-04-29 18:51 | 15.74819 | -50.11874 | 37974 ft | 463 kts | 208° |
| 2026-04-29 18:52 | 15.68949 | -50.14638 | 37970 ft | 463 kts | 208° |
| 2026-04-29 18:52 | 15.63087 | -50.17398 | 37969 ft | 463 kts | 208° |
| 2026-04-29 18:53 | 15.57218 | -50.20158 | 37969 ft | 463 kts | 208° |
| 2026-04-29 18:53 | 15.51352 | -50.22916 | 37971 ft | 463 kts | 208° |
| 2026-04-29 18:54 | 15.45479 | -50.25674 | 37967 ft | 463 kts | 208° |
| 2026-04-29 18:54 | 15.39600 | -50.28434 | 37967 ft | 463 kts | 208° |
| 2026-04-29 18:55 | 15.33766 | -50.31171 | 37971 ft | 463 kts | 208° |
| 2026-04-29 18:55 | 15.27888 | -50.33927 | 37967 ft | 463 kts | 208° |
| 2026-04-29 18:56 | 15.22016 | -50.36678 | 37964 ft | 463 kts | 208° |
| 2026-04-29 18:56 | 15.16137 | -50.39431 | 37963 ft | 464 kts | 208° |
| 2026-04-29 18:57 | 15.10259 | -50.42182 | 37963 ft | 464 kts | 208° |
| 2026-04-29 18:57 | 15.04378 | -50.44932 | 37968 ft | 464 kts | 208° |
| 2026-04-29 18:58 | 14.98528 | -50.47667 | 37966 ft | 464 kts | 208° |
| 2026-04-29 18:58 | 14.92641 | -50.50417 | 37964 ft | 464 kts | 208° |
| 2026-04-29 18:59 | 14.86750 | -50.53167 | 37966 ft | 465 kts | 208° |
| 2026-04-29 18:59 | 14.80845 | -50.55922 | 37958 ft | 465 kts | 208° |
| 2026-04-29 19:00 | 14.74948 | -50.58672 | 37960 ft | 465 kts | 208° |
| 2026-04-29 19:00 | 14.69051 | -50.61420 | 37965 ft | 465 kts | 208° |
| 2026-04-29 19:01 | 14.63183 | -50.64153 | 37963 ft | 465 kts | 208° |
| 2026-04-29 19:01 | 14.57280 | -50.66901 | 37963 ft | 466 kts | 207° |
| 2026-04-29 19:02 | 14.52321 | -50.69208 | 37957 ft | 466 kts | 207° |
| 2026-04-29 19:02 | 14.45450 | -50.72402 | 37958 ft | 466 kts | 207° |
| 2026-04-29 19:03 | 14.39531 | -50.75152 | 37962 ft | 467 kts | 207° |
| 2026-04-29 19:03 | 14.33604 | -50.77905 | 37960 ft | 467 kts | 207° |
| 2026-04-29 19:04 | 14.27675 | -50.80656 | 37954 ft | 467 kts | 207° |
| 2026-04-29 19:04 | 14.21744 | -50.83407 | 37962 ft | 467 kts | 207° |
| 2026-04-29 19:05 | 14.15853 | -50.86138 | 37957 ft | 467 kts | 207° |
| 2026-04-29 19:05 | 14.09920 | -50.88887 | 37953 ft | 467 kts | 207° |
| 2026-04-29 19:06 | 14.03985 | -50.91635 | 37954 ft | 468 kts | 207° |
| 2026-04-29 19:07 | 13.95077 | -50.95756 | 37952 ft | 468 kts | 207° |
| 2026-04-29 19:07 | 13.89131 | -50.98506 | 37956 ft | 468 kts | 207° |
| 2026-04-29 19:08 | 13.83189 | -51.01252 | 37952 ft | 468 kts | 207° |
| 2026-04-29 19:08 | 13.77232 | -51.04003 | 37949 ft | 469 kts | 207° |
| 2026-04-29 19:09 | 13.71321 | -51.06731 | 37950 ft | 469 kts | 207° |
| 2026-04-29 19:09 | 13.65363 | -51.09480 | 37948 ft | 469 kts | 207° |
| 2026-04-29 19:10 | 13.59398 | -51.12230 | 37947 ft | 469 kts | 207° |
| 2026-04-29 19:10 | 13.54435 | -51.14518 | 37949 ft | 469 kts | 207° |
| 2026-04-29 19:11 | 13.48467 | -51.17266 | 37952 ft | 470 kts | 207° |
| 2026-04-29 19:11 | 13.42507 | -51.20010 | 37946 ft | 470 kts | 207° |
| 2026-04-29 19:12 | 13.36537 | -51.22757 | 37947 ft | 470 kts | 207° |
| 2026-04-29 19:12 | 13.30564 | -51.25504 | 37948 ft | 470 kts | 207° |
| 2026-04-29 19:13 | 13.24591 | -51.28249 | 37945 ft | 470 kts | 207° |
| 2026-04-29 19:13 | 13.18647 | -51.30980 | 37941 ft | 471 kts | 207° |
| 2026-04-29 19:14 | 13.12666 | -51.33726 | 37940 ft | 471 kts | 207° |
| 2026-04-29 19:14 | 13.06683 | -51.36471 | 37942 ft | 471 kts | 207° |
| 2026-04-29 19:15 | 13.00695 | -51.39217 | 37942 ft | 472 kts | 207° |
| 2026-04-29 19:15 | 12.94700 | -51.41965 | 37940 ft | 472 kts | 207° |
| 2026-04-29 19:16 | 12.88707 | -51.44711 | 37941 ft | 472 kts | 207° |
| 2026-04-29 19:16 | 12.82742 | -51.47442 | 37937 ft | 472 kts | 207° |
| 2026-04-29 19:17 | 12.76741 | -51.50189 | 37935 ft | 472 kts | 207° |
| 2026-04-29 19:17 | 12.70737 | -51.52935 | 37939 ft | 473 kts | 207° |
| 2026-04-29 19:18 | 12.64730 | -51.55681 | 37941 ft | 473 kts | 207° |
| 2026-04-29 19:18 | 12.58713 | -51.58431 | 37934 ft | 473 kts | 207° |
| 2026-04-29 19:19 | 12.52699 | -51.61177 | 37935 ft | 473 kts | 206° |
| 2026-04-29 19:19 | 12.46681 | -51.63925 | 37932 ft | 473 kts | 206° |
| 2026-04-29 19:20 | 12.40665 | -51.66669 | 37934 ft | 473 kts | 206° |
| 2026-04-29 19:20 | 12.34639 | -51.69417 | 37929 ft | 474 kts | 206° |
| 2026-04-29 19:21 | 12.28658 | -51.72143 | 37930 ft | 474 kts | 206° |
| 2026-04-29 19:21 | 12.22638 | -51.74885 | 37934 ft | 474 kts | 206° |
| 2026-04-29 19:22 | 12.16607 | -51.77632 | 37933 ft | 474 kts | 206° |
| 2026-04-29 19:22 | 12.10574 | -51.80378 | 37928 ft | 474 kts | 206° |
| 2026-04-29 19:23 | 12.04539 | -51.83122 | 37925 ft | 475 kts | 206° |
| 2026-04-29 19:23 | 11.98498 | -51.85869 | 37925 ft | 475 kts | 206° |
| 2026-04-29 19:24 | 11.92496 | -51.88597 | 37925 ft | 475 kts | 206° |
| 2026-04-29 19:24 | 11.86449 | -51.91343 | 37923 ft | 475 kts | 206° |
| 2026-04-29 19:25 | 11.80399 | -51.94090 | 37926 ft | 475 kts | 206° |
| 2026-04-29 19:25 | 11.74353 | -51.96833 | 37925 ft | 476 kts | 206° |
| 2026-04-29 19:26 | 11.68301 | -51.99578 | 37928 ft | 476 kts | 206° |
| 2026-04-29 19:26 | 11.62246 | -52.02323 | 37924 ft | 476 kts | 206° |
| 2026-04-29 19:27 | 11.56181 | -52.05071 | 37925 ft | 477 kts | 206° |
| 2026-04-29 19:27 | 11.50157 | -52.07799 | 37924 ft | 477 kts | 206° |
| 2026-04-29 19:28 | 11.44090 | -52.10546 | 37920 ft | 477 kts | 206° |
| 2026-04-29 19:28 | 11.38016 | -52.13294 | 37923 ft | 477 kts | 206° |
| 2026-04-29 19:29 | 11.31938 | -52.16043 | 37921 ft | 478 kts | 206° |
| 2026-04-29 19:29 | 11.25860 | -52.18790 | 37922 ft | 478 kts | 206° |
| 2026-04-29 19:30 | 11.19773 | -52.21541 | 37919 ft | 478 kts | 206° |
| 2026-04-29 19:30 | 11.13689 | -52.24289 | 37921 ft | 478 kts | 206° |
| 2026-04-29 19:31 | 11.07600 | -52.27037 | 37920 ft | 479 kts | 206° |
| 2026-04-29 19:31 | 11.01541 | -52.29771 | 37920 ft | 479 kts | 206° |
| 2026-04-29 19:32 | 10.95439 | -52.32523 | 37914 ft | 479 kts | 206° |
| 2026-04-29 19:32 | 10.89345 | -52.35270 | 37914 ft | 480 kts | 206° |
| 2026-04-29 19:33 | 10.83232 | -52.38025 | 37911 ft | 480 kts | 206° |
| 2026-04-29 19:33 | 10.77126 | -52.40775 | 37932 ft | 480 kts | 206° |
| 2026-04-29 19:34 | 10.71011 | -52.43528 | 37906 ft | 480 kts | 206° |
| 2026-04-29 19:34 | 10.64893 | -52.46281 | 37906 ft | 481 kts | 206° |
| 2026-04-29 19:35 | 10.58772 | -52.49034 | 37907 ft | 481 kts | 206° |
| 2026-04-29 19:35 | 10.52641 | -52.51791 | 37919 ft | 481 kts | 206° |
| 2026-04-29 19:36 | 10.46510 | -52.54546 | 37927 ft | 482 kts | 206° |
| 2026-04-29 19:36 | 10.40420 | -52.57282 | 37907 ft | 482 kts | 206° |
| 2026-04-29 19:37 | 10.34286 | -52.60036 | 37903 ft | 482 kts | 206° |
| 2026-04-29 19:37 | 10.28109 | -52.62809 | 37906 ft | 482 kts | 206° |
| 2026-04-29 19:38 | 10.22010 | -52.65545 | 37920 ft | 482 kts | 206° |
| 2026-04-29 19:38 | 10.15867 | -52.68299 | 37924 ft | 483 kts | 206° |
| 2026-04-29 19:39 | 10.09718 | -52.71056 | 37901 ft | 483 kts | 206° |
| 2026-04-29 19:39 | 10.03564 | -52.73814 | 37902 ft | 483 kts | 206° |
| 2026-04-29 19:40 | 9.97411 | -52.76569 | 37913 ft | 483 kts | 206° |
| 2026-04-29 19:40 | 9.91251 | -52.79327 | 37916 ft | 483 kts | 206° |
| 2026-04-29 19:41 | 9.85091 | -52.82084 | 37898 ft | 484 kts | 206° |
| 2026-04-29 19:41 | 9.78964 | -52.84825 | 37912 ft | 484 kts | 206° |
| 2026-04-29 19:42 | 9.72802 | -52.87580 | 37912 ft | 484 kts | 206° |
| 2026-04-29 19:42 | 9.66641 | -52.90334 | 37908 ft | 484 kts | 206° |
| 2026-04-29 19:43 | 9.60473 | -52.93090 | 37903 ft | 484 kts | 206° |
| 2026-04-29 19:43 | 9.54308 | -52.95844 | 37903 ft | 485 kts | 206° |
| 2026-04-29 19:44 | 9.48136 | -52.98600 | 37910 ft | 485 kts | 206° |
| 2026-04-29 19:44 | 9.42016 | -53.01468 | 37906 ft | 484 kts | 209° |
| 2026-04-29 19:45 | 9.36016 | -53.04568 | 37907 ft | 484 kts | 210° |
| 2026-04-29 19:45 | 9.30030 | -53.07697 | 37904 ft | 484 kts | 210° |
| 2026-04-29 19:46 | 9.24071 | -53.10788 | 37902 ft | 484 kts | 210° |
| 2026-04-29 19:46 | 9.18066 | -53.13883 | 37900 ft | 484 kts | 210° |
| 2026-04-29 19:47 | 9.12044 | -53.16982 | 37888 ft | 485 kts | 210° |
| 2026-04-29 19:47 | 9.06027 | -53.20077 | 37899 ft | 485 kts | 210° |
| 2026-04-29 19:48 | 9.00008 | -53.23173 | 37896 ft | 485 kts | 210° |
| 2026-04-29 19:48 | 8.93993 | -53.26267 | 37900 ft | 485 kts | 210° |
| 2026-04-29 19:49 | 8.87997 | -53.29350 | 37891 ft | 486 kts | 210° |
| 2026-04-29 19:49 | 8.81966 | -53.32449 | 37898 ft | 486 kts | 210° |
| 2026-04-29 19:50 | 8.75923 | -53.35554 | 37892 ft | 486 kts | 210° |
| 2026-04-29 19:50 | 8.69924 | -53.38635 | 37901 ft | 487 kts | 210° |
| 2026-04-29 19:51 | 8.63845 | -53.41755 | 37900 ft | 487 kts | 210° |
| 2026-04-29 19:51 | 8.57844 | -53.44835 | 37889 ft | 487 kts | 210° |
| 2026-04-29 19:52 | 8.51791 | -53.47940 | 37895 ft | 488 kts | 210° |
| 2026-04-29 19:52 | 8.45738 | -53.51044 | 37897 ft | 488 kts | 210° |
| 2026-04-29 19:53 | 8.39677 | -53.54151 | 37895 ft | 488 kts | 210° |
| 2026-04-29 19:53 | 8.33619 | -53.57255 | 37892 ft | 488 kts | 210° |
| 2026-04-29 19:54 | 8.24517 | -53.61917 | 37892 ft | 489 kts | 210° |
| 2026-04-29 19:54 | 8.18448 | -53.65025 | 37894 ft | 489 kts | 210° |
| 2026-04-29 19:55 | 8.12366 | -53.68137 | 37892 ft | 489 kts | 210° |
| 2026-04-29 19:55 | 8.06339 | -53.71221 | 37895 ft | 490 kts | 210° |
| 2026-04-29 19:56 | 8.00254 | -53.74334 | 37889 ft | 490 kts | 210° |
| 2026-04-29 19:56 | 7.94173 | -53.77443 | 37886 ft | 490 kts | 210° |
| 2026-04-29 19:57 | 7.89116 | -53.80027 | 37887 ft | 490 kts | 210° |
| 2026-04-29 19:57 | 7.82008 | -53.83660 | 37882 ft | 490 kts | 210° |
| 2026-04-29 19:58 | 7.75927 | -53.86766 | 37885 ft | 490 kts | 210° |
| 2026-04-29 19:58 | 7.70879 | -53.89344 | 37881 ft | 490 kts | 210° |
| 2026-04-29 19:59 | 7.64800 | -53.92447 | 37886 ft | 489 kts | 210° |
| 2026-04-29 19:59 | 7.57740 | -53.96050 | 37880 ft | 489 kts | 210° |
| 2026-04-29 20:00 | 7.52649 | -53.98648 | 37888 ft | 489 kts | 210° |
| 2026-04-29 20:00 | 7.46614 | -54.01800 | 37881 ft | 487 kts | 212° |
| 2026-04-29 20:01 | 7.40763 | -54.05117 | 37864 ft | 483 kts | 213° |
| 2026-04-29 20:01 | 7.37843 | -54.06795 | 37466 ft | 481 kts | 213° |
| 2026-04-29 20:01 | 7.34947 | -54.08453 | 37043 ft | 476 kts | 213° |
| 2026-04-29 20:02 | 7.32074 | -54.10088 | 36606 ft | 472 kts | 212° |
| 2026-04-29 20:02 | 7.29227 | -54.11699 | 36171 ft | 467 kts | 212° |
| 2026-04-29 20:02 | 7.26400 | -54.13294 | 35758 ft | 463 kts | 212° |
| 2026-04-29 20:02 | 7.24509 | -54.14359 | 35508 ft | 460 kts | 212° |
| 2026-04-29 20:03 | 7.20830 | -54.16429 | 34937 ft | 455 kts | 211° |
| 2026-04-29 20:03 | 7.18073 | -54.17980 | 34512 ft | 452 kts | 211° |
| 2026-04-29 20:03 | 7.15328 | -54.19525 | 34050 ft | 450 kts | 211° |
| 2026-04-29 20:03 | 7.12593 | -54.21064 | 33556 ft | 449 kts | 211° |
| 2026-04-29 20:04 | 7.09874 | -54.22594 | 33078 ft | 446 kts | 211° |
| 2026-04-29 20:04 | 7.07170 | -54.24114 | 32621 ft | 443 kts | 211° |
| 2026-04-29 20:04 | 7.04486 | -54.25624 | 32170 ft | 440 kts | 211° |
| 2026-04-29 20:04 | 7.01854 | -54.27104 | 31744 ft | 438 kts | 211° |
| 2026-04-29 20:05 | 6.99198 | -54.28599 | 31298 ft | 435 kts | 210° |
| 2026-04-29 20:05 | 6.96559 | -54.30082 | 30862 ft | 433 kts | 210° |
| 2026-04-29 20:05 | 6.93932 | -54.31560 | 30418 ft | 431 kts | 210° |
| 2026-04-29 20:05 | 6.91322 | -54.33027 | 29966 ft | 429 kts | 209° |
| 2026-04-29 20:06 | 6.88725 | -54.34488 | 29473 ft | 427 kts | 209° |
| 2026-04-29 20:06 | 6.86137 | -54.35943 | 28991 ft | 424 kts | 209° |
| 2026-04-29 20:06 | 6.83574 | -54.37383 | 28534 ft | 421 kts | 208° |
| 2026-04-29 20:06 | 6.81044 | -54.38805 | 28087 ft | 419 kts | 208° |
| 2026-04-29 20:07 | 6.78509 | -54.40229 | 27649 ft | 416 kts | 207° |
| 2026-04-29 20:07 | 6.75992 | -54.41643 | 27216 ft | 414 kts | 207° |
| 2026-04-29 20:07 | 6.73485 | -54.43050 | 26779 ft | 411 kts | 207° |
| 2026-04-29 20:07 | 6.70991 | -54.44451 | 26353 ft | 410 kts | 207° |
| 2026-04-29 20:08 | 6.68506 | -54.45847 | 25919 ft | 408 kts | 207° |
| 2026-04-29 20:08 | 6.66865 | -54.46768 | 25632 ft | 407 kts | 207° |
| 2026-04-29 20:08 | 6.63563 | -54.48621 | 25042 ft | 406 kts | 206° |
| 2026-04-29 20:08 | 6.61097 | -54.50006 | 24609 ft | 405 kts | 206° |
| 2026-04-29 20:09 | 6.58636 | -54.51387 | 24174 ft | 404 kts | 206° |
| 2026-04-29 20:09 | 6.56182 | -54.52765 | 23755 ft | 403 kts | 206° |
| 2026-04-29 20:09 | 6.53734 | -54.54138 | 23276 ft | 403 kts | 205° |
| 2026-04-29 20:09 | 6.51286 | -54.55511 | 22793 ft | 402 kts | 206° |
| 2026-04-29 20:10 | 6.48748 | -54.56927 | 22358 ft | 429 kts | 206° |
| 2026-04-29 20:10 | 6.46140 | -54.58384 | 21870 ft | 440 kts | 206° |
| 2026-04-29 20:10 | 6.43443 | -54.59895 | 21386 ft | 448 kts | 206° |
| 2026-04-29 20:10 | 6.40705 | -54.61432 | 20891 ft | 454 kts | 206° |
| 2026-04-29 20:11 | 6.37923 | -54.62993 | 20396 ft | 459 kts | 206° |
| 2026-04-29 20:11 | 6.35137 | -54.64558 | 19975 ft | 459 kts | 206° |
| 2026-04-29 20:11 | 6.32368 | -54.66114 | 19433 ft | 453 kts | 206° |
| 2026-04-29 20:11 | 6.29619 | -54.67659 | 18295 ft | 450 kts | 206° |
| 2026-04-29 20:12 | 6.26856 | -54.69207 | 17130 ft | 458 kts | 206° |
| 2026-04-29 20:12 | 6.24102 | -54.70750 | 16309 ft | 449 kts | 207° |
| 2026-04-29 20:12 | 6.21385 | -54.72273 | 15963 ft | 432 kts | 207° |
| 2026-04-29 20:12 | 6.18763 | -54.73744 | 15740 ft | 432 kts | 207° |
| 2026-04-29 20:13 | 6.16151 | -54.75207 | 15707 ft | 419 kts | 207° |
| 2026-04-29 20:13 | 6.13757 | -54.76553 | 15596 ft | 379 kts | 207° |
| 2026-04-29 20:13 | 6.11541 | -54.77797 | 15207 ft | 352 kts | 207° |
| 2026-04-29 20:13 | 6.09462 | -54.78960 | 14754 ft | 333 kts | 207° |
| 2026-04-29 20:14 | 6.07490 | -54.80064 | 14303 ft | 317 kts | 207° |
| 2026-04-29 20:14 | 6.05564 | -54.81139 | 13934 ft | 319 kts | 207° |
| 2026-04-29 20:14 | 6.03607 | -54.82231 | 13535 ft | 323 kts | 207° |
| 2026-04-29 20:14 | 6.01652 | -54.83358 | 13093 ft | 326 kts | 211° |
| 2026-04-29 20:15 | 5.99858 | -54.84762 | 12645 ft | 327 kts | 219° |
| 2026-04-29 20:15 | 5.98182 | -54.86263 | 12182 ft | 315 kts | 220° |
| 2026-04-29 20:15 | 5.96603 | -54.87710 | 11732 ft | 300 kts | 220° |
| 2026-04-29 20:15 | 5.95087 | -54.89096 | 11292 ft | 288 kts | 220° |
| 2026-04-29 20:16 | 5.93601 | -54.90441 | 10930 ft | 290 kts | 219° |
| 2026-04-29 20:16 | 5.92082 | -54.91808 | 10632 ft | 294 kts | 219° |
| 2026-04-29 20:16 | 5.90551 | -54.93179 | 10348 ft | 295 kts | 219° |
| 2026-04-29 20:16 | 5.89021 | -54.94546 | 10045 ft | 293 kts | 219° |
| 2026-04-29 20:17 | 5.87499 | -54.95903 | 9764 ft | 292 kts | 219° |
| 2026-04-29 20:17 | 5.85984 | -54.97251 | 9429 ft | 290 kts | 219° |
| 2026-04-29 20:17 | 5.84477 | -54.98592 | 9099 ft | 289 kts | 219° |
| 2026-04-29 20:17 | 5.82977 | -54.99926 | 8772 ft | 288 kts | 219° |
| 2026-04-29 20:18 | 5.81483 | -55.01255 | 8454 ft | 286 kts | 219° |
| 2026-04-29 20:18 | 5.79993 | -55.02579 | 8129 ft | 285 kts | 219° |
| 2026-04-29 20:18 | 5.78508 | -55.03897 | 7794 ft | 285 kts | 219° |
| 2026-04-29 20:18 | 5.77021 | -55.05216 | 7461 ft | 285 kts | 219° |
| 2026-04-29 20:19 | 5.75538 | -55.06532 | 7132 ft | 285 kts | 219° |
| 2026-04-29 20:19 | 5.74054 | -55.07849 | 6811 ft | 285 kts | 219° |
| 2026-04-29 20:19 | 5.72608 | -55.09133 | 6467 ft | 274 kts | 219° |
| 2026-04-29 20:19 | 5.71174 | -55.10407 | 6150 ft | 276 kts | 219° |
| 2026-04-29 20:20 | 5.69735 | -55.11684 | 5804 ft | 277 kts | 219° |
| 2026-04-29 20:20 | 5.68302 | -55.12954 | 5465 ft | 278 kts | 219° |
| 2026-04-29 20:20 | 5.66852 | -55.14240 | 5128 ft | 274 kts | 220° |
| 2026-04-29 20:20 | 5.65463 | -55.15475 | 4747 ft | 259 kts | 219° |
| 2026-04-29 20:21 | 5.64143 | -55.16647 | 4385 ft | 251 kts | 220° |
| 2026-04-29 20:21 | 5.62826 | -55.17814 | 4095 ft | 253 kts | 220° |
| 2026-04-29 20:21 | 5.61504 | -55.18985 | 3771 ft | 254 kts | 220° |
| 2026-04-29 20:21 | 5.60230 | -55.20204 | 3431 ft | 252 kts | 232° |
| 2026-04-29 20:22 | 5.59533 | -55.21804 | 3123 ft | 250 kts | 259° |
| 2026-04-29 20:22 | 5.59270 | -55.23522 | 2836 ft | 250 kts | 264° |
| 2026-04-29 20:22 | 5.59067 | -55.25257 | 2549 ft | 250 kts | 265° |
| 2026-04-29 20:22 | 5.58863 | -55.26993 | 2275 ft | 250 kts | 265° |
| 2026-04-29 20:23 | 5.58655 | -55.28732 | 1983 ft | 252 kts | 265° |
| 2026-04-29 20:23 | 5.58445 | -55.30473 | 1686 ft | 252 kts | 265° |
| 2026-04-29 20:23 | 5.58233 | -55.32210 | 1552 ft | 245 kts | 265° |
| 2026-04-29 20:23 | 5.58029 | -55.33852 | 1485 ft | 235 kts | 265° |
| 2026-04-29 20:24 | 5.57826 | -55.35435 | 1465 ft | 222 kts | 265° |
| 2026-04-29 20:24 | 5.57626 | -55.36967 | 1466 ft | 220 kts | 265° |
| 2026-04-29 20:24 | 5.57431 | -55.38470 | 1473 ft | 215 kts | 265° |
| 2026-04-29 20:24 | 5.57236 | -55.39961 | 1468 ft | 215 kts | 265° |
| 2026-04-29 20:25 | 5.56998 | -55.41430 | 1459 ft | 211 kts | 253° |
| 2026-04-29 20:25 | 5.56172 | -55.42621 | 1480 ft | 216 kts | 215° |
| 2026-04-29 20:25 | 5.54785 | -55.43160 | 1481 ft | 213 kts | 186° |
| 2026-04-29 20:25 | 5.53314 | -55.43264 | 1469 ft | 210 kts | 180° |
| 2026-04-29 20:26 | 5.51877 | -55.43309 | 1532 ft | 202 kts | 180° |
| 2026-04-29 20:26 | 5.50469 | -55.43345 | 1470 ft | 202 kts | 180° |
| 2026-04-29 20:26 | 5.49085 | -55.43264 | 1472 ft | 201 kts | 159° |
| 2026-04-29 20:26 | 5.47932 | -55.42519 | 1487 ft | 195 kts | 133° |
| 2026-04-29 20:27 | 5.47002 | -55.41579 | 1480 ft | 185 kts | 130° |
| 2026-04-29 20:27 | 5.46415 | -55.40968 | 1471 ft | 182 kts | 130° |
| 2026-04-29 20:27 | 5.45455 | -55.39650 | 1465 ft | 170 kts | 97° |
| 2026-04-29 20:27 | 5.45322 | -55.38455 | 1532 ft | 177 kts | 93° |
| 2026-04-29 20:28 | 5.45224 | -55.37241 | 1471 ft | 166 kts | 89° |
| 2026-04-29 20:28 | 5.45195 | -55.36151 | 1466 ft | 151 kts | 88° |
| 2026-04-29 20:28 | 5.45191 | -55.35098 | 1465 ft | 150 kts | 88° |
| 2026-04-29 20:28 | 5.45195 | -55.34053 | 1490 ft | 147 kts | 87° |
| 2026-04-29 20:29 | 5.45199 | -55.33045 | 1478 ft | 141 kts | 86° |
| 2026-04-29 20:29 | 5.45206 | -55.32067 | 1531 ft | 143 kts | 87° |
| 2026-04-29 20:29 | 5.45212 | -55.31056 | 1478 ft | 144 kts | 87° |
| 2026-04-29 20:29 | 5.45216 | -55.30068 | 1488 ft | 140 kts | 86° |
| 2026-04-29 20:30 | 5.45223 | -55.29091 | 1472 ft | 140 kts | 87° |
| 2026-04-29 20:30 | 5.45228 | -55.28100 | 1502 ft | 143 kts | 86° |
| 2026-04-29 20:30 | 5.45235 | -55.27086 | 1343 ft | 146 kts | 86° |
| 2026-04-29 20:30 | 5.45240 | -55.26094 | 1171 ft | 139 kts | 86° |
| 2026-04-29 20:31 | 5.45253 | -55.25122 | 996 ft | 139 kts | 88° |
| 2026-04-29 20:31 | 5.45262 | -55.24140 | 845 ft | 144 kts | 87° |
| 2026-04-29 20:31 | 5.45260 | -55.23120 | 680 ft | 148 kts | 86° |
| 2026-04-29 20:31 | 5.45275 | -55.22110 | 412 ft | 144 kts | 86° |
| 2026-04-29 20:32 | 5.45278 | -55.21138 | 228 ft | 136 kts | 86° |
| 2026-04-29 20:32 | 5.45284 | -55.20178 | 84 ft | 138 kts | 86° |
| 2026-04-29 20:32 | 5.45288 | -55.19305 | 66 ft | 105 kts | 89° |
| 2026-04-29 20:32 | 5.45289 | -55.18896 | 64 ft | 69 kts | 90° |
| 2026-04-29 20:33 | 5.45292 | -55.18351 | 69 ft | 55 kts | 90° |
| 2026-04-29 20:33 | 5.45293 | -55.17992 | 72 ft | 48 kts | 90° |
| 2026-04-29 20:33 | 5.45294 | -55.17676 | 73 ft | 43 kts | 90° |
| 2026-04-29 20:33 | 5.45295 | -55.17414 | 65 ft | 34 kts | 89° |
| 2026-04-29 20:34 | 5.45297 | -55.17243 | 63 ft | 12 kts | 82° |
| 2026-04-29 20:34 | 5.45363 | -55.17198 | 67 ft | 12 kts | 8° |
| 2026-04-29 20:34 | 5.45442 | -55.17219 | 65 ft | 12 kts | 313° |
| 2026-04-29 20:34 | 5.45459 | -55.17302 | 64 ft | 13 kts | 260° |
| 2026-04-29 20:35 | 5.45406 | -55.17371 | 61 ft | 13 kts | 225° |
| 2026-04-29 20:35 | 5.45345 | -55.17433 | 61 ft | 13 kts | 224° |
| 2026-04-29 20:35 | 5.45298 | -55.17505 | 63 ft | 13 kts | 260° |
| 2026-04-29 20:35 | 5.45296 | -55.17595 | 71 ft | 13 kts | 273° |
| 2026-04-29 20:36 | 5.45294 | -55.17688 | 73 ft | 13 kts | 269° |
| 2026-04-29 20:36 | 5.45294 | -55.17782 | 73 ft | 15 kts | 270° |
| 2026-04-29 20:36 | 5.45293 | -55.17986 | 68 ft | 38 kts | 269° |
| 2026-04-29 20:36 | 5.45292 | -55.18250 | 70 ft | 38 kts | 270° |
| 2026-04-29 20:37 | 5.45291 | -55.18508 | 69 ft | 37 kts | 270° |
| 2026-04-29 20:37 | 5.45290 | -55.18760 | 63 ft | 36 kts | 270° |
| 2026-04-29 20:37 | 5.45289 | -55.19003 | 65 ft | 34 kts | 270° |
| 2026-04-29 20:37 | 5.45289 | -55.19149 | 65 ft | 33 kts | 270° |
| 2026-04-29 20:40 | 5.45286 | -55.19353 | 66 ft | 50 kts | 270° |
| 2026-04-29 20:41 | 5.45288 | -55.19615 | 66 ft | 29 kts | 269° |
| 2026-04-29 20:41 | 5.45343 | -55.19730 | 66 ft | 17 kts | 350° |
| 2026-04-29 20:41 | 5.45443 | -55.19771 | 68 ft | 15 kts | 300° |
| 2026-04-29 20:41 | 5.45502 | -55.19810 | 66 ft | 10 kts | 355° |
| 2026-04-29 20:42 | 5.45528 | -55.19811 | 60 ft | 0 kts | 359° |
| 2026-04-29 20:42 | 5.45225 | -55.28651 | 1485 ft | 142 kts | 86° |
| 2026-04-29 20:43 | 5.45231 | -55.27653 | 1476 ft | 145 kts | 86° |
| 2026-04-29 20:43 | 5.45237 | -55.26636 | 1265 ft | 142 kts | 86° |
| 2026-04-29 20:43 | 5.45242 | -55.25659 | 1087 ft | 139 kts | 85° |
| 2026-04-29 20:43 | 5.45258 | -55.24686 | 943 ft | 140 kts | 88° |
| 2026-04-29 20:44 | 5.45258 | -55.23685 | 767 ft | 146 kts | 87° |
| 2026-04-29 20:44 | 5.45267 | -55.22674 | 605 ft | 147 kts | 85° |
| 2026-04-29 20:44 | 5.45271 | -55.21659 | 363 ft | 139 kts | 84° |
| 2026-04-29 20:44 | 5.45279 | -55.20711 | 152 ft | 137 kts | 86° |
| 2026-04-29 20:45 | 5.45284 | -55.19760 | 66 ft | 128 kts | 88° |
| 2026-04-29 20:45 | 5.45290 | -55.19014 | 65 ft | 81 kts | 90° |
| 2026-04-29 20:45 | 5.45528 | -55.19811 | 60 ft | 0 kts | 359° |
| 2026-04-29 20:45 | 5.45237 | -55.26705 | 1279 ft | 141 kts | 86° |
| 2026-04-29 20:46 | 5.45226 | -55.28575 | 1491 ft | 141 kts | 86° |
| 2026-04-29 20:47 | 5.45228 | -55.28203 | 1501 ft | 143 kts | 86° |
| 2026-04-29 20:47 | 5.45234 | -55.27188 | 1369 ft | 147 kts | 86° |
| 2026-04-29 20:47 | 5.45239 | -55.26190 | 1193 ft | 139 kts | 86° |
| 2026-04-29 20:47 | 5.45244 | -55.25545 | 1066 ft | 139 kts | 85° |
| 2026-04-29 20:48 | 5.45262 | -55.24237 | 864 ft | 144 kts | 87° |
| 2026-04-29 20:48 | 5.45259 | -55.23220 | 701 ft | 148 kts | 86° |
| 2026-04-29 20:48 | 5.45275 | -55.22195 | 435 ft | 145 kts | 86° |
| 2026-04-29 20:48 | 5.45277 | -55.21218 | 241 ft | 137 kts | 85° |
| 2026-04-29 20:49 | 5.45283 | -55.20261 | 91 ft | 139 kts | 86° |
| 2026-04-29 20:49 | 5.45287 | -55.19646 | 66 ft | 125 kts | 89° |
| 2026-04-29 20:49 | 5.45290 | -55.18944 | 65 ft | 73 kts | 90° |